﻿<?xml version="1.0" encoding="utf-8"?><gpx creator="Garmin Desktop App" version="1.1" xsi:schemaLocation="http://www.topografix.com/GPX/1/1 http://www.topografix.com/GPX/1/1/gpx.xsd http://www.garmin.com/xmlschemas/WaypointExtension/v1 http://www8.garmin.com/xmlschemas/WaypointExtensionv1.xsd http://www.garmin.com/xmlschemas/TrackPointExtension/v1 http://www.garmin.com/xmlschemas/TrackPointExtensionv1.xsd http://www.garmin.com/xmlschemas/GpxExtensions/v3 http://www8.garmin.com/xmlschemas/GpxExtensionsv3.xsd http://www.garmin.com/xmlschemas/ActivityExtension/v1 http://www8.garmin.com/xmlschemas/ActivityExtensionv1.xsd http://www.garmin.com/xmlschemas/AdventuresExtensions/v1 http://www8.garmin.com/xmlschemas/AdventuresExtensionv1.xsd http://www.garmin.com/xmlschemas/PressureExtension/v1 http://www.garmin.com/xmlschemas/PressureExtensionv1.xsd http://www.garmin.com/xmlschemas/TripExtensions/v1 http://www.garmin.com/xmlschemas/TripExtensionsv1.xsd http://www.garmin.com/xmlschemas/TripMetaDataExtensions/v1 http://www.garmin.com/xmlschemas/TripMetaDataExtensionsv1.xsd http://www.garmin.com/xmlschemas/ViaPointTransportationModeExtensions/v1 http://www.garmin.com/xmlschemas/ViaPointTransportationModeExtensionsv1.xsd http://www.garmin.com/xmlschemas/CreationTimeExtension/v1 http://www.garmin.com/xmlschemas/CreationTimeExtensionsv1.xsd http://www.garmin.com/xmlschemas/AccelerationExtension/v1 http://www.garmin.com/xmlschemas/AccelerationExtensionv1.xsd http://www.garmin.com/xmlschemas/PowerExtension/v1 http://www.garmin.com/xmlschemas/PowerExtensionv1.xsd http://www.garmin.com/xmlschemas/VideoExtension/v1 http://www.garmin.com/xmlschemas/VideoExtensionv1.xsd" xmlns="http://www.topografix.com/GPX/1/1" xmlns:xsi="http://www.w3.org/2001/XMLSchema-instance" xmlns:wptx1="http://www.garmin.com/xmlschemas/WaypointExtension/v1" xmlns:gpxtrx="http://www.garmin.com/xmlschemas/GpxExtensions/v3" xmlns:gpxtpx="http://www.garmin.com/xmlschemas/TrackPointExtension/v1" xmlns:gpxx="http://www.garmin.com/xmlschemas/GpxExtensions/v3" xmlns:trp="http://www.garmin.com/xmlschemas/TripExtensions/v1" xmlns:adv="http://www.garmin.com/xmlschemas/AdventuresExtensions/v1" xmlns:prs="http://www.garmin.com/xmlschemas/PressureExtension/v1" xmlns:tmd="http://www.garmin.com/xmlschemas/TripMetaDataExtensions/v1" xmlns:vptm="http://www.garmin.com/xmlschemas/ViaPointTransportationModeExtensions/v1" xmlns:ctx="http://www.garmin.com/xmlschemas/CreationTimeExtension/v1" xmlns:gpxacc="http://www.garmin.com/xmlschemas/AccelerationExtension/v1" xmlns:gpxpx="http://www.garmin.com/xmlschemas/PowerExtension/v1" xmlns:vidx1="http://www.garmin.com/xmlschemas/VideoExtension/v1">

  <metadata>
    <link href="http://www.garmin.com">
      <text>Garmin International</text>
    </link>
    <time>2021-02-20T11:37:21Z</time>
    <bounds maxlat="46.434942428022623" maxlon="8.430663719773293" minlat="46.417152341455221" minlon="8.416782869026065" />
  </metadata>

  <trk>
    <name>rifugio maria luisa22 SET 2013 09:24</name>
    <extensions>
      <gpxx:TrackExtension>
        <gpxx:DisplayColor>Yellow</gpxx:DisplayColor>
      </gpxx:TrackExtension>
    </extensions>
    <trkseg>
      <trkpt lat="46.419772859662771" lon="8.416782869026065">
        <ele>1745.8900000000001</ele>
        <time>2013-09-22T07:24:51Z</time>
      </trkpt>
      <trkpt lat="46.419793982058764" lon="8.416803823783994">
        <ele>1746.3699999999999</ele>
        <time>2013-09-22T07:25:13Z</time>
      </trkpt>
      <trkpt lat="46.419811919331551" lon="8.416816312819719">
        <ele>1746.3699999999999</ele>
        <time>2013-09-22T07:25:26Z</time>
      </trkpt>
      <trkpt lat="46.419840166345239" lon="8.416817989200354">
        <ele>1746.3699999999999</ele>
        <time>2013-09-22T07:25:44Z</time>
      </trkpt>
      <trkpt lat="46.419878052547574" lon="8.416818995028734">
        <ele>1746.3699999999999</ele>
        <time>2013-09-22T07:25:53Z</time>
      </trkpt>
      <trkpt lat="46.419915771111846" lon="8.416814971715212">
        <ele>1746.3699999999999</ele>
        <time>2013-09-22T07:25:57Z</time>
      </trkpt>
      <trkpt lat="46.419946951791644" lon="8.416836597025394">
        <ele>1746.3699999999999</ele>
        <time>2013-09-22T07:26:01Z</time>
      </trkpt>
      <trkpt lat="46.420022640377283" lon="8.416860233992338">
        <ele>1745.8900000000001</ele>
        <time>2013-09-22T07:26:16Z</time>
      </trkpt>
      <trkpt lat="46.420029513537884" lon="8.416843805462122">
        <ele>1745.8900000000001</ele>
        <time>2013-09-22T07:26:19Z</time>
      </trkpt>
      <trkpt lat="46.420066980645061" lon="8.416814804077148">
        <ele>1746.8499999999999</ele>
        <time>2013-09-22T07:26:34Z</time>
      </trkpt>
      <trkpt lat="46.420059017837048" lon="8.416830478236079">
        <ele>1746.8499999999999</ele>
        <time>2013-09-22T07:26:54Z</time>
      </trkpt>
      <trkpt lat="46.420107465237379" lon="8.416871968656778">
        <ele>1745.4100000000001</ele>
        <time>2013-09-22T07:27:03Z</time>
      </trkpt>
      <trkpt lat="46.42011190764606" lon="8.416871717199683">
        <ele>1745.8900000000001</ele>
        <time>2013-09-22T07:27:06Z</time>
      </trkpt>
      <trkpt lat="46.420211484655738" lon="8.417005240917206">
        <ele>1745.8900000000001</ele>
        <time>2013-09-22T07:27:21Z</time>
      </trkpt>
      <trkpt lat="46.420230595394969" lon="8.417000127956271">
        <ele>1745.4100000000001</ele>
        <time>2013-09-22T07:27:23Z</time>
      </trkpt>
      <trkpt lat="46.420247862115502" lon="8.416986297816038">
        <ele>1745.4100000000001</ele>
        <time>2013-09-22T07:27:41Z</time>
      </trkpt>
      <trkpt lat="46.420267559587955" lon="8.417032230645418">
        <ele>1744.9300000000001</ele>
        <time>2013-09-22T07:27:48Z</time>
      </trkpt>
      <trkpt lat="46.420316509902477" lon="8.41698294505477">
        <ele>1744.9300000000001</ele>
        <time>2013-09-22T07:27:54Z</time>
      </trkpt>
      <trkpt lat="46.420312402769923" lon="8.41702887788415">
        <ele>1744.9300000000001</ele>
        <time>2013-09-22T07:28:10Z</time>
      </trkpt>
      <trkpt lat="46.420335788279772" lon="8.417020160704851">
        <ele>1744.9300000000001</ele>
        <time>2013-09-22T07:28:14Z</time>
      </trkpt>
      <trkpt lat="46.420366046950221" lon="8.416974898427725">
        <ele>1745.8900000000001</ele>
        <time>2013-09-22T07:28:26Z</time>
      </trkpt>
      <trkpt lat="46.420375015586615" lon="8.41697464697063">
        <ele>1745.8900000000001</ele>
        <time>2013-09-22T07:28:28Z</time>
      </trkpt>
      <trkpt lat="46.420474844053388" lon="8.417010940611363">
        <ele>1746.8499999999999</ele>
        <time>2013-09-22T07:28:38Z</time>
      </trkpt>
      <trkpt lat="46.420615576207638" lon="8.417100291699171">
        <ele>1746.8499999999999</ele>
        <time>2013-09-22T07:28:52Z</time>
      </trkpt>
      <trkpt lat="46.420821268111467" lon="8.41722534969449">
        <ele>1746.3699999999999</ele>
        <time>2013-09-22T07:29:11Z</time>
      </trkpt>
      <trkpt lat="46.421063421294093" lon="8.417337918654084">
        <ele>1746.3699999999999</ele>
        <time>2013-09-22T07:29:31Z</time>
      </trkpt>
      <trkpt lat="46.421073982492089" lon="8.417335068807006">
        <ele>1746.3699999999999</ele>
        <time>2013-09-22T07:29:32Z</time>
      </trkpt>
      <trkpt lat="46.421102145686746" lon="8.417440513148904">
        <ele>1746.8499999999999</ele>
        <time>2013-09-22T07:29:38Z</time>
      </trkpt>
      <trkpt lat="46.421205075457692" lon="8.417706890031695">
        <ele>1746.8499999999999</ele>
        <time>2013-09-22T07:29:56Z</time>
      </trkpt>
      <trkpt lat="46.421233406290412" lon="8.418062701821327">
        <ele>1746.3699999999999</ele>
        <time>2013-09-22T07:30:16Z</time>
      </trkpt>
      <trkpt lat="46.421244638040662" lon="8.418247774243355">
        <ele>1747.3299999999999</ele>
        <time>2013-09-22T07:30:34Z</time>
      </trkpt>
      <trkpt lat="46.42124162055552" lon="8.418230004608631">
        <ele>1746.8499999999999</ele>
        <time>2013-09-22T07:30:56Z</time>
      </trkpt>
      <trkpt lat="46.42122108489275" lon="8.418254479765892">
        <ele>1746.8499999999999</ele>
        <time>2013-09-22T07:31:16Z</time>
      </trkpt>
      <trkpt lat="46.421244470402598" lon="8.41826462186873">
        <ele>1746.8499999999999</ele>
        <time>2013-09-22T07:31:39Z</time>
      </trkpt>
      <trkpt lat="46.421237345784903" lon="8.418254731222987">
        <ele>1746.8499999999999</ele>
        <time>2013-09-22T07:31:53Z</time>
      </trkpt>
      <trkpt lat="46.421256456524134" lon="8.41829102486372">
        <ele>1747.3299999999999</ele>
        <time>2013-09-22T07:32:10Z</time>
      </trkpt>
      <trkpt lat="46.421257210895419" lon="8.418331844732165">
        <ele>1747.3299999999999</ele>
        <time>2013-09-22T07:32:13Z</time>
      </trkpt>
      <trkpt lat="46.421269197016954" lon="8.418384231626988">
        <ele>1747.3299999999999</ele>
        <time>2013-09-22T07:32:17Z</time>
      </trkpt>
      <trkpt lat="46.421267939731479" lon="8.418449610471726">
        <ele>1747.8099999999999</ele>
        <time>2013-09-22T07:32:22Z</time>
      </trkpt>
      <trkpt lat="46.421264335513115" lon="8.418483976274729">
        <ele>1748.29</ele>
        <time>2013-09-22T07:32:24Z</time>
      </trkpt>
      <trkpt lat="46.421212116256356" lon="8.418697379529476">
        <ele>1749.74</ele>
        <time>2013-09-22T07:32:40Z</time>
      </trkpt>
      <trkpt lat="46.421203063800931" lon="8.418719423934817">
        <ele>1750.7</ele>
        <time>2013-09-22T07:32:42Z</time>
      </trkpt>
      <trkpt lat="46.421087980270386" lon="8.418890330940485">
        <ele>1752.1400000000001</ele>
        <time>2013-09-22T07:32:59Z</time>
      </trkpt>
      <trkpt lat="46.420968119055033" lon="8.419033912941814">
        <ele>1754.0599999999999</ele>
        <time>2013-09-22T07:33:15Z</time>
      </trkpt>
      <trkpt lat="46.420862507075071" lon="8.419180177152157">
        <ele>1755.99</ele>
        <time>2013-09-22T07:33:30Z</time>
      </trkpt>
      <trkpt lat="46.42076326534152" lon="8.419321998953819">
        <ele>1756.95</ele>
        <time>2013-09-22T07:33:45Z</time>
      </trkpt>
      <trkpt lat="46.420664191246033" lon="8.419437250122428">
        <ele>1758.8699999999999</ele>
        <time>2013-09-22T07:34:00Z</time>
      </trkpt>
      <trkpt lat="46.42055950127542" lon="8.41960052959621">
        <ele>1759.8299999999999</ele>
        <time>2013-09-22T07:34:16Z</time>
      </trkpt>
      <trkpt lat="46.420440478250384" lon="8.419758025556803">
        <ele>1761.27</ele>
        <time>2013-09-22T07:34:31Z</time>
      </trkpt>
      <trkpt lat="46.420412231236696" lon="8.419796666130424">
        <ele>1761.75</ele>
        <time>2013-09-22T07:34:35Z</time>
      </trkpt>
      <trkpt lat="46.420311732217669" lon="8.419972602277994">
        <ele>1763.6800000000001</ele>
        <time>2013-09-22T07:34:51Z</time>
      </trkpt>
      <trkpt lat="46.420250879600644" lon="8.420183742418885">
        <ele>1765.1199999999999</ele>
        <time>2013-09-22T07:35:07Z</time>
      </trkpt>
      <trkpt lat="46.420188266783953" lon="8.42038432136178">
        <ele>1766.5599999999999</ele>
        <time>2013-09-22T07:35:23Z</time>
      </trkpt>
      <trkpt lat="46.420165384188294" lon="8.420431008562446">
        <ele>1767.04</ele>
        <time>2013-09-22T07:35:27Z</time>
      </trkpt>
      <trkpt lat="46.420128336176276" lon="8.420500997453928">
        <ele>1767.52</ele>
        <time>2013-09-22T07:35:33Z</time>
      </trkpt>
      <trkpt lat="46.419975450262427" lon="8.420663438737392">
        <ele>1769.4400000000001</ele>
        <time>2013-09-22T07:35:51Z</time>
      </trkpt>
      <trkpt lat="46.419837065041065" lon="8.420799979940057">
        <ele>1771.8499999999999</ele>
        <time>2013-09-22T07:36:11Z</time>
      </trkpt>
      <trkpt lat="46.41982851549983" lon="8.420803667977452">
        <ele>1772.3299999999999</ele>
        <time>2013-09-22T07:36:31Z</time>
      </trkpt>
      <trkpt lat="46.419714018702507" lon="8.420934090390801">
        <ele>1773.77</ele>
        <time>2013-09-22T07:36:46Z</time>
      </trkpt>
      <trkpt lat="46.419563144445419" lon="8.421083623543382">
        <ele>1775.21</ele>
        <time>2013-09-22T07:37:04Z</time>
      </trkpt>
      <trkpt lat="46.419391483068466" lon="8.421190325170755">
        <ele>1777.1300000000001</ele>
        <time>2013-09-22T07:37:22Z</time>
      </trkpt>
      <trkpt lat="46.419368935748935" lon="8.421206921339035">
        <ele>1777.6099999999999</ele>
        <time>2013-09-22T07:37:25Z</time>
      </trkpt>
      <trkpt lat="46.419170284643769" lon="8.42125603929162">
        <ele>1779.54</ele>
        <time>2013-09-22T07:37:44Z</time>
      </trkpt>
      <trkpt lat="46.418981105089188" lon="8.421306749805808">
        <ele>1782.4200000000001</ele>
        <time>2013-09-22T07:38:03Z</time>
      </trkpt>
      <trkpt lat="46.41881950199604" lon="8.421396939083934">
        <ele>1783.8599999999999</ele>
        <time>2013-09-22T07:38:20Z</time>
      </trkpt>
      <trkpt lat="46.418658401817083" lon="8.421453600749373">
        <ele>1785.79</ele>
        <time>2013-09-22T07:38:35Z</time>
      </trkpt>
      <trkpt lat="46.418637111783028" lon="8.42146759852767">
        <ele>1785.79</ele>
        <time>2013-09-22T07:38:37Z</time>
      </trkpt>
      <trkpt lat="46.418482046574354" lon="8.42153012752533">
        <ele>1787.23</ele>
        <time>2013-09-22T07:38:53Z</time>
      </trkpt>
      <trkpt lat="46.418309127911925" lon="8.421565666794777">
        <ele>1789.6300000000001</ele>
        <time>2013-09-22T07:39:11Z</time>
      </trkpt>
      <trkpt lat="46.418168814852834" lon="8.421557284891605">
        <ele>1790.5899999999999</ele>
        <time>2013-09-22T07:39:26Z</time>
      </trkpt>
      <trkpt lat="46.418044343590736" lon="8.421520655974746">
        <ele>1792.52</ele>
        <time>2013-09-22T07:39:39Z</time>
      </trkpt>
      <trkpt lat="46.41787058673799" lon="8.421437591314316">
        <ele>1793.96</ele>
        <time>2013-09-22T07:39:57Z</time>
      </trkpt>
      <trkpt lat="46.417721891775727" lon="8.421366177499294">
        <ele>1796.3599999999999</ele>
        <time>2013-09-22T07:40:13Z</time>
      </trkpt>
      <trkpt lat="46.417604545131326" lon="8.421319993212819">
        <ele>1796.8399999999999</ele>
        <time>2013-09-22T07:40:26Z</time>
      </trkpt>
      <trkpt lat="46.417450318112969" lon="8.421277077868581">
        <ele>1799.24</ele>
        <time>2013-09-22T07:40:42Z</time>
      </trkpt>
      <trkpt lat="46.417332636192441" lon="8.421288225799799">
        <ele>1800.21</ele>
        <time>2013-09-22T07:40:54Z</time>
      </trkpt>
      <trkpt lat="46.417250074446201" lon="8.42123500071466">
        <ele>1801.6500000000001</ele>
        <time>2013-09-22T07:41:03Z</time>
      </trkpt>
      <trkpt lat="46.417172709479928" lon="8.421236425638199">
        <ele>1802.6099999999999</ele>
        <time>2013-09-22T07:41:10Z</time>
      </trkpt>
      <trkpt lat="46.417153514921665" lon="8.421313120052218">
        <ele>1802.6099999999999</ele>
        <time>2013-09-22T07:41:15Z</time>
      </trkpt>
      <trkpt lat="46.417152341455221" lon="8.421345390379429">
        <ele>1803.5699999999999</ele>
        <time>2013-09-22T07:41:17Z</time>
      </trkpt>
      <trkpt lat="46.417179331183434" lon="8.421387551352382">
        <ele>1803.5699999999999</ele>
        <time>2013-09-22T07:41:21Z</time>
      </trkpt>
      <trkpt lat="46.417199028655887" lon="8.421398447826505">
        <ele>1804.05</ele>
        <time>2013-09-22T07:41:23Z</time>
      </trkpt>
      <trkpt lat="46.417384101077914" lon="8.4214211627841">
        <ele>1805.49</ele>
        <time>2013-09-22T07:41:40Z</time>
      </trkpt>
      <trkpt lat="46.417522486299276" lon="8.421474220231175">
        <ele>1807.4200000000001</ele>
        <time>2013-09-22T07:41:55Z</time>
      </trkpt>
      <trkpt lat="46.417628098279238" lon="8.421557787805796">
        <ele>1808.3800000000001</ele>
        <time>2013-09-22T07:42:08Z</time>
      </trkpt>
      <trkpt lat="46.417757179588079" lon="8.421670189127326">
        <ele>1809.8199999999999</ele>
        <time>2013-09-22T07:42:23Z</time>
      </trkpt>
      <trkpt lat="46.417879136279225" lon="8.421803042292595">
        <ele>1811.74</ele>
        <time>2013-09-22T07:42:39Z</time>
      </trkpt>
      <trkpt lat="46.417967230081558" lon="8.421882167458534">
        <ele>1812.7</ele>
        <time>2013-09-22T07:42:50Z</time>
      </trkpt>
      <trkpt lat="46.418001931160688" lon="8.42186389490962">
        <ele>1813.1800000000001</ele>
        <time>2013-09-22T07:43:01Z</time>
      </trkpt>
      <trkpt lat="46.418033195659518" lon="8.421903122216463">
        <ele>1813.6600000000001</ele>
        <time>2013-09-22T07:43:16Z</time>
      </trkpt>
      <trkpt lat="46.418049205094576" lon="8.421924244612455">
        <ele>1813.6600000000001</ele>
        <time>2013-09-22T07:43:18Z</time>
      </trkpt>
      <trkpt lat="46.418192451819777" lon="8.422020971775055">
        <ele>1815.5899999999999</ele>
        <time>2013-09-22T07:43:34Z</time>
      </trkpt>
      <trkpt lat="46.418319856747985" lon="8.422107053920627">
        <ele>1817.03</ele>
        <time>2013-09-22T07:43:48Z</time>
      </trkpt>
      <trkpt lat="46.418484896421432" lon="8.422175534069538">
        <ele>1818.95</ele>
        <time>2013-09-22T07:44:04Z</time>
      </trkpt>
      <trkpt lat="46.418635603040457" lon="8.422244433313608">
        <ele>1820.8699999999999</ele>
        <time>2013-09-22T07:44:19Z</time>
      </trkpt>
      <trkpt lat="46.418740041553974" lon="8.42230268754065">
        <ele>1821.3499999999999</ele>
        <time>2013-09-22T07:44:30Z</time>
      </trkpt>
      <trkpt lat="46.41876527108252" lon="8.42229874804616">
        <ele>1822.3199999999999</ele>
        <time>2013-09-22T07:44:32Z</time>
      </trkpt>
      <trkpt lat="46.418818077072501" lon="8.422312410548329">
        <ele>1822.8</ele>
        <time>2013-09-22T07:44:37Z</time>
      </trkpt>
      <trkpt lat="46.418994264677167" lon="8.4223847463727">
        <ele>1824.72</ele>
        <time>2013-09-22T07:44:55Z</time>
      </trkpt>
      <trkpt lat="46.419171122834086" lon="8.422458507120609">
        <ele>1826.6400000000001</ele>
        <time>2013-09-22T07:45:11Z</time>
      </trkpt>
      <trkpt lat="46.419341862201691" lon="8.422557162120938">
        <ele>1828.5599999999999</ele>
        <time>2013-09-22T07:45:28Z</time>
      </trkpt>
      <trkpt lat="46.419350998476148" lon="8.422560347244144">
        <ele>1829.05</ele>
        <time>2013-09-22T07:45:29Z</time>
      </trkpt>
      <trkpt lat="46.419481420889497" lon="8.422630839049816">
        <ele>1830.49</ele>
        <time>2013-09-22T07:45:44Z</time>
      </trkpt>
      <trkpt lat="46.41954462043941" lon="8.422656571492553">
        <ele>1830.97</ele>
        <time>2013-09-22T07:46:01Z</time>
      </trkpt>
      <trkpt lat="46.419688621535897" lon="8.422749023884535">
        <ele>1832.8900000000001</ele>
        <time>2013-09-22T07:46:16Z</time>
      </trkpt>
      <trkpt lat="46.419698763638735" lon="8.422744497656822">
        <ele>1832.8900000000001</ele>
        <time>2013-09-22T07:46:17Z</time>
      </trkpt>
      <trkpt lat="46.41985927708447" lon="8.422753382474184">
        <ele>1833.8499999999999</ele>
        <time>2013-09-22T07:46:32Z</time>
      </trkpt>
      <trkpt lat="46.420023813843727" lon="8.422805350273848">
        <ele>1836.26</ele>
        <time>2013-09-22T07:46:48Z</time>
      </trkpt>
      <trkpt lat="46.420103358104825" lon="8.422790262848139">
        <ele>1836.74</ele>
        <time>2013-09-22T07:46:56Z</time>
      </trkpt>
      <trkpt lat="46.420173179358244" lon="8.422781210392714">
        <ele>1837.7</ele>
        <time>2013-09-22T07:47:04Z</time>
      </trkpt>
      <trkpt lat="46.420318437740207" lon="8.422813815996051">
        <ele>1839.1400000000001</ele>
        <time>2013-09-22T07:47:19Z</time>
      </trkpt>
      <trkpt lat="46.420389600098133" lon="8.422792106866837">
        <ele>1840.5799999999999</ele>
        <time>2013-09-22T07:47:35Z</time>
      </trkpt>
      <trkpt lat="46.420460930094123" lon="8.422813396900892">
        <ele>1841.0599999999999</ele>
        <time>2013-09-22T07:47:54Z</time>
      </trkpt>
      <trkpt lat="46.420587077736855" lon="8.422840386629105">
        <ele>1842.5</ele>
        <time>2013-09-22T07:48:06Z</time>
      </trkpt>
      <trkpt lat="46.420606439933181" lon="8.42284013517201">
        <ele>1842.5</ele>
        <time>2013-09-22T07:48:08Z</time>
      </trkpt>
      <trkpt lat="46.420720349997282" lon="8.422838961705566">
        <ele>1843.95</ele>
        <time>2013-09-22T07:48:18Z</time>
      </trkpt>
      <trkpt lat="46.42082042992115" lon="8.422838374972343">
        <ele>1843.95</ele>
        <time>2013-09-22T07:48:31Z</time>
      </trkpt>
      <trkpt lat="46.420907769352198" lon="8.422846421599388">
        <ele>1845.3900000000001</ele>
        <time>2013-09-22T07:48:41Z</time>
      </trkpt>
      <trkpt lat="46.421093763783574" lon="8.422795543447137">
        <ele>1847.79</ele>
        <time>2013-09-22T07:48:57Z</time>
      </trkpt>
      <trkpt lat="46.421167021617293" lon="8.422759501263499">
        <ele>1848.75</ele>
        <time>2013-09-22T07:49:04Z</time>
      </trkpt>
      <trkpt lat="46.421219911426306" lon="8.422755058854818">
        <ele>1849.23</ele>
        <time>2013-09-22T07:49:18Z</time>
      </trkpt>
      <trkpt lat="46.421221923083067" lon="8.422748101875186">
        <ele>1849.23</ele>
        <time>2013-09-22T07:49:35Z</time>
      </trkpt>
      <trkpt lat="46.421236172318459" lon="8.422748353332281">
        <ele>1849.23</ele>
        <time>2013-09-22T07:49:52Z</time>
      </trkpt>
      <trkpt lat="46.421259641647339" lon="8.422756902873516">
        <ele>1849.23</ele>
        <time>2013-09-22T07:50:05Z</time>
      </trkpt>
      <trkpt lat="46.421279171481729" lon="8.422757238149643">
        <ele>1849.71</ele>
        <time>2013-09-22T07:50:07Z</time>
      </trkpt>
      <trkpt lat="46.421416299417615" lon="8.422728991135955">
        <ele>1850.6800000000001</ele>
        <time>2013-09-22T07:50:20Z</time>
      </trkpt>
      <trkpt lat="46.421524845063686" lon="8.422740725800395">
        <ele>1851.6400000000001</ele>
        <time>2013-09-22T07:50:31Z</time>
      </trkpt>
      <trkpt lat="46.421664236113429" lon="8.42273167334497">
        <ele>1853.5599999999999</ele>
        <time>2013-09-22T07:50:46Z</time>
      </trkpt>
      <trkpt lat="46.421811506152153" lon="8.422749191522598">
        <ele>1854.52</ele>
        <time>2013-09-22T07:51:02Z</time>
      </trkpt>
      <trkpt lat="46.421839836984873" lon="8.422744078561664">
        <ele>1855</ele>
        <time>2013-09-22T07:51:05Z</time>
      </trkpt>
      <trkpt lat="46.421910747885704" lon="8.422782048583031">
        <ele>1855.96</ele>
        <time>2013-09-22T07:51:18Z</time>
      </trkpt>
      <trkpt lat="46.421929271891713" lon="8.422701749950647">
        <ele>1855.96</ele>
        <time>2013-09-22T07:51:31Z</time>
      </trkpt>
      <trkpt lat="46.421960704028606" lon="8.422677693888545">
        <ele>1856.4400000000001</ele>
        <time>2013-09-22T07:51:35Z</time>
      </trkpt>
      <trkpt lat="46.422028932720423" lon="8.422661349177361">
        <ele>1857.4000000000001</ele>
        <time>2013-09-22T07:51:42Z</time>
      </trkpt>
      <trkpt lat="46.422063130885363" lon="8.422669982537627">
        <ele>1857.4000000000001</ele>
        <time>2013-09-22T07:51:46Z</time>
      </trkpt>
      <trkpt lat="46.422203443944454" lon="8.422668976709247">
        <ele>1859.3299999999999</ele>
        <time>2013-09-22T07:52:00Z</time>
      </trkpt>
      <trkpt lat="46.422384828329086" lon="8.42258800752461">
        <ele>1861.73</ele>
        <time>2013-09-22T07:52:17Z</time>
      </trkpt>
      <trkpt lat="46.422553975135088" lon="8.422564705833793">
        <ele>1863.1700000000001</ele>
        <time>2013-09-22T07:52:34Z</time>
      </trkpt>
      <trkpt lat="46.422571828588843" lon="8.422568729147315">
        <ele>1863.6500000000001</ele>
        <time>2013-09-22T07:52:36Z</time>
      </trkpt>
      <trkpt lat="46.42270996235311" lon="8.422526149079204">
        <ele>1864.6099999999999</ele>
        <time>2013-09-22T07:52:50Z</time>
      </trkpt>
      <trkpt lat="46.422841809689999" lon="8.422483736649156">
        <ele>1866.54</ele>
        <time>2013-09-22T07:53:04Z</time>
      </trkpt>
      <trkpt lat="46.422988325357437" lon="8.422417771071196">
        <ele>1867.98</ele>
        <time>2013-09-22T07:53:19Z</time>
      </trkpt>
      <trkpt lat="46.423126123845577" lon="8.422355493530631">
        <ele>1869.4200000000001</ele>
        <time>2013-09-22T07:53:33Z</time>
      </trkpt>
      <trkpt lat="46.423288397490978" lon="8.422303693369031">
        <ele>1871.8199999999999</ele>
        <time>2013-09-22T07:53:49Z</time>
      </trkpt>
      <trkpt lat="46.423377580940723" lon="8.422250133007765">
        <ele>1872.3</ele>
        <time>2013-09-22T07:53:59Z</time>
      </trkpt>
      <trkpt lat="46.423493167385459" lon="8.422154914587736">
        <ele>1874.23</ele>
        <time>2013-09-22T07:54:13Z</time>
      </trkpt>
      <trkpt lat="46.423594420775771" lon="8.422021642327309">
        <ele>1875.6700000000001</ele>
        <time>2013-09-22T07:54:27Z</time>
      </trkpt>
      <trkpt lat="46.423692237585783" lon="8.42192298732698">
        <ele>1877.1099999999999</ele>
        <time>2013-09-22T07:54:40Z</time>
      </trkpt>
      <trkpt lat="46.423772117123008" lon="8.421856518834829">
        <ele>1878.0699999999999</ele>
        <time>2013-09-22T07:54:50Z</time>
      </trkpt>
      <trkpt lat="46.423841435462236" lon="8.421842521056533">
        <ele>1878.55</ele>
        <time>2013-09-22T07:54:57Z</time>
      </trkpt>
      <trkpt lat="46.423868089914322" lon="8.421849561855197">
        <ele>1879.51</ele>
        <time>2013-09-22T07:55:00Z</time>
      </trkpt>
      <trkpt lat="46.423910921439528" lon="8.421868840232492">
        <ele>1880</ele>
        <time>2013-09-22T07:55:05Z</time>
      </trkpt>
      <trkpt lat="46.424032123759389" lon="8.421919215470552">
        <ele>1880.96</ele>
        <time>2013-09-22T07:55:18Z</time>
      </trkpt>
      <trkpt lat="46.424135640263557" lon="8.422019295394421">
        <ele>1882.4000000000001</ele>
        <time>2013-09-22T07:55:32Z</time>
      </trkpt>
      <trkpt lat="46.4241714309901" lon="8.422025833278894">
        <ele>1882.8800000000001</ele>
        <time>2013-09-22T07:55:36Z</time>
      </trkpt>
      <trkpt lat="46.424262123182416" lon="8.421992557123303">
        <ele>1883.8399999999999</ele>
        <time>2013-09-22T07:55:47Z</time>
      </trkpt>
      <trkpt lat="46.424366729333997" lon="8.421936482191086">
        <ele>1885.28</ele>
        <time>2013-09-22T07:56:00Z</time>
      </trkpt>
      <trkpt lat="46.424474352970719" lon="8.42188292182982">
        <ele>1886.24</ele>
        <time>2013-09-22T07:56:13Z</time>
      </trkpt>
      <trkpt lat="46.42455892637372" lon="8.421763647347689">
        <ele>1887.6900000000001</ele>
        <time>2013-09-22T07:56:28Z</time>
      </trkpt>
      <trkpt lat="46.424649367108941" lon="8.421599110588431">
        <ele>1889.6099999999999</ele>
        <time>2013-09-22T07:56:44Z</time>
      </trkpt>
      <trkpt lat="46.424763528630137" lon="8.421562230214477">
        <ele>1891.05</ele>
        <time>2013-09-22T07:56:58Z</time>
      </trkpt>
      <trkpt lat="46.424759924411774" lon="8.421640265733004">
        <ele>1891.53</ele>
        <time>2013-09-22T07:57:04Z</time>
      </trkpt>
      <trkpt lat="46.424688762053847" lon="8.421782506629825">
        <ele>1892.97</ele>
        <time>2013-09-22T07:57:17Z</time>
      </trkpt>
      <trkpt lat="46.424636794254184" lon="8.421950228512287">
        <ele>1893.9300000000001</ele>
        <time>2013-09-22T07:57:32Z</time>
      </trkpt>
      <trkpt lat="46.424618605524302" lon="8.421981493011117">
        <ele>1893.9300000000001</ele>
        <time>2013-09-22T07:57:35Z</time>
      </trkpt>
      <trkpt lat="46.424509724602103" lon="8.422085763886571">
        <ele>1895.8599999999999</ele>
        <time>2013-09-22T07:57:51Z</time>
      </trkpt>
      <trkpt lat="46.42440696246922" lon="8.422165140509605">
        <ele>1896.8199999999999</ele>
        <time>2013-09-22T07:58:05Z</time>
      </trkpt>
      <trkpt lat="46.42433563247323" lon="8.422327665612102">
        <ele>1898.26</ele>
        <time>2013-09-22T07:58:19Z</time>
      </trkpt>
      <trkpt lat="46.424271427094936" lon="8.422482060268521">
        <ele>1899.7</ele>
        <time>2013-09-22T07:58:34Z</time>
      </trkpt>
      <trkpt lat="46.424143770709634" lon="8.422561520710588">
        <ele>1901.1400000000001</ele>
        <time>2013-09-22T07:58:50Z</time>
      </trkpt>
      <trkpt lat="46.424104291945696" lon="8.422578200697899">
        <ele>1901.6300000000001</ele>
        <time>2013-09-22T07:58:54Z</time>
      </trkpt>
      <trkpt lat="46.424040589481592" lon="8.422704180702567">
        <ele>1902.5899999999999</ele>
        <time>2013-09-22T07:59:09Z</time>
      </trkpt>
      <trkpt lat="46.423990465700626" lon="8.422852708026767">
        <ele>1903.55</ele>
        <time>2013-09-22T07:59:22Z</time>
      </trkpt>
      <trkpt lat="46.423964146524668" lon="8.422913812100887">
        <ele>1904.03</ele>
        <time>2013-09-22T07:59:27Z</time>
      </trkpt>
      <trkpt lat="46.423943694680929" lon="8.422944992780685">
        <ele>1904.51</ele>
        <time>2013-09-22T07:59:30Z</time>
      </trkpt>
      <trkpt lat="46.423856439068913" lon="8.423026883974671">
        <ele>1905.47</ele>
        <time>2013-09-22T07:59:42Z</time>
      </trkpt>
      <trkpt lat="46.423736410215497" lon="8.423100141808391">
        <ele>1906.9100000000001</ele>
        <time>2013-09-22T07:59:56Z</time>
      </trkpt>
      <trkpt lat="46.423707995563745" lon="8.423120509833098">
        <ele>1907.3900000000001</ele>
        <time>2013-09-22T07:59:59Z</time>
      </trkpt>
      <trkpt lat="46.423591151833534" lon="8.423212291672826">
        <ele>1908.8299999999999</ele>
        <time>2013-09-22T08:00:12Z</time>
      </trkpt>
      <trkpt lat="46.423455951735377" lon="8.423314886167646">
        <ele>1910.28</ele>
        <time>2013-09-22T08:00:28Z</time>
      </trkpt>
      <trkpt lat="46.423314129933715" lon="8.423410775139928">
        <ele>1912.2</ele>
        <time>2013-09-22T08:00:44Z</time>
      </trkpt>
      <trkpt lat="46.423257803544402" lon="8.42345436103642">
        <ele>1912.6800000000001</ele>
        <time>2013-09-22T08:00:50Z</time>
      </trkpt>
      <trkpt lat="46.423156382516026" lon="8.423602217808366">
        <ele>1914.5999999999999</ele>
        <time>2013-09-22T08:01:04Z</time>
      </trkpt>
      <trkpt lat="46.423127548769116" lon="8.423647480085492">
        <ele>1914.5999999999999</ele>
        <time>2013-09-22T08:01:08Z</time>
      </trkpt>
      <trkpt lat="46.423085136339068" lon="8.423691233620048">
        <ele>1915.5599999999999</ele>
        <time>2013-09-22T08:01:15Z</time>
      </trkpt>
      <trkpt lat="46.42303291708231" lon="8.4237489849329">
        <ele>1916.53</ele>
        <time>2013-09-22T08:01:21Z</time>
      </trkpt>
      <trkpt lat="46.422878270968795" lon="8.423845209181309">
        <ele>1917.49</ele>
        <time>2013-09-22T08:01:38Z</time>
      </trkpt>
      <trkpt lat="46.422925796359777" lon="8.42391025274992">
        <ele>1919.4100000000001</ele>
        <time>2013-09-22T08:01:47Z</time>
      </trkpt>
      <trkpt lat="46.423081699758768" lon="8.423855183646083">
        <ele>1921.8099999999999</ele>
        <time>2013-09-22T08:02:04Z</time>
      </trkpt>
      <trkpt lat="46.423149341717362" lon="8.423837665468454">
        <ele>1921.8099999999999</ele>
        <time>2013-09-22T08:02:11Z</time>
      </trkpt>
      <trkpt lat="46.423170967027545" lon="8.423832217231393">
        <ele>1922.29</ele>
        <time>2013-09-22T08:02:13Z</time>
      </trkpt>
      <trkpt lat="46.423213798552752" lon="8.423837246373296">
        <ele>1922.77</ele>
        <time>2013-09-22T08:02:17Z</time>
      </trkpt>
      <trkpt lat="46.423219498246908" lon="8.423862894997001">
        <ele>1921.3299999999999</ele>
        <time>2013-09-22T08:02:21Z</time>
      </trkpt>
      <trkpt lat="46.423221928998828" lon="8.423851830884814">
        <ele>1922.29</ele>
        <time>2013-09-22T08:02:44Z</time>
      </trkpt>
      <trkpt lat="46.423240033909678" lon="8.42381788417697">
        <ele>1922.77</ele>
        <time>2013-09-22T08:02:55Z</time>
      </trkpt>
      <trkpt lat="46.423296444118023" lon="8.423809418454766">
        <ele>1923.25</ele>
        <time>2013-09-22T08:03:03Z</time>
      </trkpt>
      <trkpt lat="46.423314968124032" lon="8.423810843378305">
        <ele>1923.25</ele>
        <time>2013-09-22T08:03:05Z</time>
      </trkpt>
      <trkpt lat="46.423456706106663" lon="8.423745715990663">
        <ele>1925.1800000000001</ele>
        <time>2013-09-22T08:03:20Z</time>
      </trkpt>
      <trkpt lat="46.423484785482287" lon="8.423724342137575">
        <ele>1925.6600000000001</ele>
        <time>2013-09-22T08:03:23Z</time>
      </trkpt>
      <trkpt lat="46.42360707744956" lon="8.423604229465127">
        <ele>1927.0999999999999</ele>
        <time>2013-09-22T08:03:39Z</time>
      </trkpt>
      <trkpt lat="46.423705480992794" lon="8.423511609435082">
        <ele>1928.54</ele>
        <time>2013-09-22T08:03:51Z</time>
      </trkpt>
      <trkpt lat="46.423877561464906" lon="8.423503143712878">
        <ele>1929.98</ele>
        <time>2013-09-22T08:04:07Z</time>
      </trkpt>
      <trkpt lat="46.424041260033846" lon="8.423535414040089">
        <ele>1930.95</ele>
        <time>2013-09-22T08:04:24Z</time>
      </trkpt>
      <trkpt lat="46.42418366856873" lon="8.423569612205029">
        <ele>1931.9100000000001</ele>
        <time>2013-09-22T08:04:38Z</time>
      </trkpt>
      <trkpt lat="46.424333620816469" lon="8.423585118725896">
        <ele>1933.3499999999999</ele>
        <time>2013-09-22T08:04:52Z</time>
      </trkpt>
      <trkpt lat="46.424358850345016" lon="8.423574473708868">
        <ele>1933.8299999999999</ele>
        <time>2013-09-22T08:04:54Z</time>
      </trkpt>
      <trkpt lat="46.424403693526983" lon="8.423540191724896">
        <ele>1933.8299999999999</ele>
        <time>2013-09-22T08:04:59Z</time>
      </trkpt>
      <trkpt lat="46.424428839236498" lon="8.423535162582994">
        <ele>1934.3099999999999</ele>
        <time>2013-09-22T08:05:02Z</time>
      </trkpt>
      <trkpt lat="46.424559513106942" lon="8.423484284430742">
        <ele>1935.75</ele>
        <time>2013-09-22T08:05:16Z</time>
      </trkpt>
      <trkpt lat="46.424666633829474" lon="8.423488726839423">
        <ele>1936.23</ele>
        <time>2013-09-22T08:05:27Z</time>
      </trkpt>
      <trkpt lat="46.424811137840152" lon="8.423371631652117">
        <ele>1937.6700000000001</ele>
        <time>2013-09-22T08:05:42Z</time>
      </trkpt>
      <trkpt lat="46.424904093146324" lon="8.423249758780003">
        <ele>1938.6400000000001</ele>
        <time>2013-09-22T08:05:54Z</time>
      </trkpt>
      <trkpt lat="46.424951702356339" lon="8.423211704939604">
        <ele>1939.1199999999999</ele>
        <time>2013-09-22T08:05:59Z</time>
      </trkpt>
      <trkpt lat="46.424993360415101" lon="8.423190414905548">
        <ele>1940.0799999999999</ele>
        <time>2013-09-22T08:06:03Z</time>
      </trkpt>
      <trkpt lat="46.425168793648481" lon="8.423159904778004">
        <ele>1941.52</ele>
        <time>2013-09-22T08:06:20Z</time>
      </trkpt>
      <trkpt lat="46.425296198576689" lon="8.423194857314229">
        <ele>1942.96</ele>
        <time>2013-09-22T08:06:33Z</time>
      </trkpt>
      <trkpt lat="46.425395188853145" lon="8.423213297501206">
        <ele>1943.4400000000001</ele>
        <time>2013-09-22T08:06:43Z</time>
      </trkpt>
      <trkpt lat="46.425493340939283" lon="8.423052281141281">
        <ele>1945.3599999999999</ele>
        <time>2013-09-22T08:06:58Z</time>
      </trkpt>
      <trkpt lat="46.425570119172335" lon="8.422988159582019">
        <ele>1946.3299999999999</ele>
        <time>2013-09-22T08:07:07Z</time>
      </trkpt>
      <trkpt lat="46.425740187987685" lon="8.42297256924212">
        <ele>1948.25</ele>
        <time>2013-09-22T08:07:24Z</time>
      </trkpt>
      <trkpt lat="46.42586600035429" lon="8.42302244156599">
        <ele>1949.6900000000001</ele>
        <time>2013-09-22T08:07:38Z</time>
      </trkpt>
      <trkpt lat="46.425993908196688" lon="8.422905933111906">
        <ele>1951.1300000000001</ele>
        <time>2013-09-22T08:07:52Z</time>
      </trkpt>
      <trkpt lat="46.425997596234083" lon="8.422892857342959">
        <ele>1951.1300000000001</ele>
        <time>2013-09-22T08:07:53Z</time>
      </trkpt>
      <trkpt lat="46.426047971472144" lon="8.422672161832452">
        <ele>1953.0599999999999</ele>
        <time>2013-09-22T08:08:08Z</time>
      </trkpt>
      <trkpt lat="46.42604730091989" lon="8.422636706382036">
        <ele>1953.54</ele>
        <time>2013-09-22T08:08:11Z</time>
      </trkpt>
      <trkpt lat="46.426114859059453" lon="8.422400588169694">
        <ele>1954.98</ele>
        <time>2013-09-22T08:08:28Z</time>
      </trkpt>
      <trkpt lat="46.426223739981651" lon="8.422231944277883">
        <ele>1956.9000000000001</ele>
        <time>2013-09-22T08:08:44Z</time>
      </trkpt>
      <trkpt lat="46.42628182657063" lon="8.422127673402429">
        <ele>1957.3800000000001</ele>
        <time>2013-09-22T08:08:53Z</time>
      </trkpt>
      <trkpt lat="46.426364555954933" lon="8.421948468312621">
        <ele>1958.8199999999999</ele>
        <time>2013-09-22T08:09:08Z</time>
      </trkpt>
      <trkpt lat="46.42639422789216" lon="8.421756187453866">
        <ele>1960.27</ele>
        <time>2013-09-22T08:09:24Z</time>
      </trkpt>
      <trkpt lat="46.426366316154599" lon="8.421557787805796">
        <ele>1961.71</ele>
        <time>2013-09-22T08:09:38Z</time>
      </trkpt>
      <trkpt lat="46.426373356953263" lon="8.421332649886608">
        <ele>1962.6700000000001</ele>
        <time>2013-09-22T08:09:53Z</time>
      </trkpt>
      <trkpt lat="46.426330441609025" lon="8.421136178076267">
        <ele>1964.5899999999999</ele>
        <time>2013-09-22T08:10:08Z</time>
      </trkpt>
      <trkpt lat="46.426335638388991" lon="8.421119162812829">
        <ele>1964.1099999999999</ele>
        <time>2013-09-22T08:10:11Z</time>
      </trkpt>
      <trkpt lat="46.426348127424717" lon="8.42116710729897">
        <ele>1964.1099999999999</ele>
        <time>2013-09-22T08:10:23Z</time>
      </trkpt>
      <trkpt lat="46.426311330869794" lon="8.421057555824518">
        <ele>1963.6300000000001</ele>
        <time>2013-09-22T08:10:38Z</time>
      </trkpt>
      <trkpt lat="46.426323903724551" lon="8.42105713672936">
        <ele>1963.6300000000001</ele>
        <time>2013-09-22T08:11:00Z</time>
      </trkpt>
      <trkpt lat="46.426307056099176" lon="8.421064512804151">
        <ele>1963.6300000000001</ele>
        <time>2013-09-22T08:11:15Z</time>
      </trkpt>
      <trkpt lat="46.426312252879143" lon="8.421059064567089">
        <ele>1965.0699999999999</ele>
        <time>2013-09-22T08:11:30Z</time>
      </trkpt>
      <trkpt lat="46.426309989765286" lon="8.421054957434535">
        <ele>1965.0699999999999</ele>
        <time>2013-09-22T08:11:48Z</time>
      </trkpt>
      <trkpt lat="46.426306888461113" lon="8.42106107622385">
        <ele>1965.0699999999999</ele>
        <time>2013-09-22T08:12:02Z</time>
      </trkpt>
      <trkpt lat="46.42631652764976" lon="8.421072559431195">
        <ele>1965.0699999999999</ele>
        <time>2013-09-22T08:12:17Z</time>
      </trkpt>
      <trkpt lat="46.426317701116204" lon="8.42105420306325">
        <ele>1965.0699999999999</ele>
        <time>2013-09-22T08:12:34Z</time>
      </trkpt>
      <trkpt lat="46.426310744136572" lon="8.42106987722218">
        <ele>1965.0699999999999</ele>
        <time>2013-09-22T08:12:49Z</time>
      </trkpt>
      <trkpt lat="46.426309738308191" lon="8.421072643250227">
        <ele>1965.0699999999999</ele>
        <time>2013-09-22T08:13:06Z</time>
      </trkpt>
      <trkpt lat="46.426375033333898" lon="8.421048503369093">
        <ele>1964.5899999999999</ele>
        <time>2013-09-22T08:13:25Z</time>
      </trkpt>
      <trkpt lat="46.426434041932225" lon="8.421032661572099">
        <ele>1965.55</ele>
        <time>2013-09-22T08:13:37Z</time>
      </trkpt>
      <trkpt lat="46.426449883729219" lon="8.421047581359744">
        <ele>1965.55</ele>
        <time>2013-09-22T08:13:40Z</time>
      </trkpt>
      <trkpt lat="46.426462708041072" lon="8.421068703755736">
        <ele>1966.03</ele>
        <time>2013-09-22T08:13:43Z</time>
      </trkpt>
      <trkpt lat="46.426468072459102" lon="8.421194683760405">
        <ele>1966.51</ele>
        <time>2013-09-22T08:13:52Z</time>
      </trkpt>
      <trkpt lat="46.426465893164277" lon="8.421258218586445">
        <ele>1967.48</ele>
        <time>2013-09-22T08:14:07Z</time>
      </trkpt>
      <trkpt lat="46.426503024995327" lon="8.42128487303853">
        <ele>1967.48</ele>
        <time>2013-09-22T08:14:17Z</time>
      </trkpt>
      <trkpt lat="46.426615845412016" lon="8.421399956569076">
        <ele>1968.4400000000001</ele>
        <time>2013-09-22T08:14:31Z</time>
      </trkpt>
      <trkpt lat="46.426712237298489" lon="8.421559631824493">
        <ele>1970.3599999999999</ele>
        <time>2013-09-22T08:14:47Z</time>
      </trkpt>
      <trkpt lat="46.42674601636827" lon="8.421660466119647">
        <ele>1971.3199999999999</ele>
        <time>2013-09-22T08:14:55Z</time>
      </trkpt>
      <trkpt lat="46.42674601636827" lon="8.421735735610127">
        <ele>1971.8</ele>
        <time>2013-09-22T08:15:09Z</time>
      </trkpt>
      <trkpt lat="46.426734868437052" lon="8.421863056719303">
        <ele>1973.24</ele>
        <time>2013-09-22T08:15:22Z</time>
      </trkpt>
      <trkpt lat="46.426696227863431" lon="8.422047039493918">
        <ele>1974.6900000000001</ele>
        <time>2013-09-22T08:15:37Z</time>
      </trkpt>
      <trkpt lat="46.426592711359262" lon="8.422197243198752">
        <ele>1976.1300000000001</ele>
        <time>2013-09-22T08:15:53Z</time>
      </trkpt>
      <trkpt lat="46.426538480445743" lon="8.422253904864192">
        <ele>1978.05</ele>
        <time>2013-09-22T08:16:08Z</time>
      </trkpt>
      <trkpt lat="46.426539234817028" lon="8.422409472987056">
        <ele>1978.53</ele>
        <time>2013-09-22T08:16:19Z</time>
      </trkpt>
      <trkpt lat="46.426583155989647" lon="8.422645423561335">
        <ele>1980.45</ele>
        <time>2013-09-22T08:16:34Z</time>
      </trkpt>
      <trkpt lat="46.426587849855423" lon="8.422683393582702">
        <ele>1980.45</ele>
        <time>2013-09-22T08:16:37Z</time>
      </trkpt>
      <trkpt lat="46.426566727459431" lon="8.422797555103898">
        <ele>1981.4100000000001</ele>
        <time>2013-09-22T08:16:45Z</time>
      </trkpt>
      <trkpt lat="46.426542419940233" lon="8.422986986115575">
        <ele>1982.8599999999999</ele>
        <time>2013-09-22T08:16:59Z</time>
      </trkpt>
      <trkpt lat="46.426510149613023" lon="8.423161916434765">
        <ele>1984.3</ele>
        <time>2013-09-22T08:17:13Z</time>
      </trkpt>
      <trkpt lat="46.42646849155426" lon="8.423320669680834">
        <ele>1985.74</ele>
        <time>2013-09-22T08:17:27Z</time>
      </trkpt>
      <trkpt lat="46.426429850980639" lon="8.42349492944777">
        <ele>1987.6600000000001</ele>
        <time>2013-09-22T08:17:41Z</time>
      </trkpt>
      <trkpt lat="46.426427671685815" lon="8.423538682982326">
        <ele>1987.6600000000001</ele>
        <time>2013-09-22T08:17:45Z</time>
      </trkpt>
      <trkpt lat="46.426414176821709" lon="8.42366449534893">
        <ele>1988.1400000000001</ele>
        <time>2013-09-22T08:18:00Z</time>
      </trkpt>
      <trkpt lat="46.426423816010356" lon="8.423719312995672">
        <ele>1988.1400000000001</ele>
        <time>2013-09-22T08:18:12Z</time>
      </trkpt>
      <trkpt lat="46.426374781876802" lon="8.423899859189987">
        <ele>1989.5899999999999</ele>
        <time>2013-09-22T08:18:27Z</time>
      </trkpt>
      <trkpt lat="46.426338823512197" lon="8.423960795626044">
        <ele>1991.03</ele>
        <time>2013-09-22T08:18:33Z</time>
      </trkpt>
      <trkpt lat="46.426276210695505" lon="8.424193561077118">
        <ele>1992.95</ele>
        <time>2013-09-22T08:18:52Z</time>
      </trkpt>
      <trkpt lat="46.42615819349885" lon="8.424369832500815">
        <ele>1994.3900000000001</ele>
        <time>2013-09-22T08:19:08Z</time>
      </trkpt>
      <trkpt lat="46.426070099696517" lon="8.424505116418004">
        <ele>1996.8</ele>
        <time>2013-09-22T08:19:23Z</time>
      </trkpt>
      <trkpt lat="46.425946885719895" lon="8.424683148041368">
        <ele>1998.24</ele>
        <time>2013-09-22T08:19:42Z</time>
      </trkpt>
      <trkpt lat="46.425895169377327" lon="8.424722710624337">
        <ele>1998.24</ele>
        <time>2013-09-22T08:19:56Z</time>
      </trkpt>
      <trkpt lat="46.425881423056126" lon="8.424740312620997">
        <ele>1998.24</ele>
        <time>2013-09-22T08:20:19Z</time>
      </trkpt>
      <trkpt lat="46.425739768892527" lon="8.424892192706466">
        <ele>2000.1600000000001</ele>
        <time>2013-09-22T08:20:36Z</time>
      </trkpt>
      <trkpt lat="46.425611693412066" lon="8.425004677847028">
        <ele>2002.0799999999999</ele>
        <time>2013-09-22T08:20:53Z</time>
      </trkpt>
      <trkpt lat="46.42557087354362" lon="8.425124539062381">
        <ele>2003.04</ele>
        <time>2013-09-22T08:21:10Z</time>
      </trkpt>
      <trkpt lat="46.425567856058478" lon="8.425107942894101">
        <ele>2002.5599999999999</ele>
        <time>2013-09-22T08:21:24Z</time>
      </trkpt>
      <trkpt lat="46.425537010654807" lon="8.425115570425987">
        <ele>2003.04</ele>
        <time>2013-09-22T08:21:26Z</time>
      </trkpt>
      <trkpt lat="46.425503566861153" lon="8.425075840204954">
        <ele>2003.04</ele>
        <time>2013-09-22T08:21:43Z</time>
      </trkpt>
      <trkpt lat="46.42548831179738" lon="8.425078270956874">
        <ele>2003.04</ele>
        <time>2013-09-22T08:21:46Z</time>
      </trkpt>
      <trkpt lat="46.425328385084867" lon="8.425254039466381">
        <ele>2005.45</ele>
        <time>2013-09-22T08:22:05Z</time>
      </trkpt>
      <trkpt lat="46.425245655700564" lon="8.425316065549851">
        <ele>2005.9300000000001</ele>
        <time>2013-09-22T08:22:14Z</time>
      </trkpt>
      <trkpt lat="46.425117161124945" lon="8.425310617312789">
        <ele>2006.8900000000001</ele>
        <time>2013-09-22T08:22:28Z</time>
      </trkpt>
      <trkpt lat="46.425054632127285" lon="8.425336517393589">
        <ele>2007.8499999999999</ele>
        <time>2013-09-22T08:22:37Z</time>
      </trkpt>
      <trkpt lat="46.425033006817102" lon="8.425293182954192">
        <ele>2008.3299999999999</ele>
        <time>2013-09-22T08:22:53Z</time>
      </trkpt>
      <trkpt lat="46.425053961575031" lon="8.425333248451352">
        <ele>2008.3299999999999</ele>
        <time>2013-09-22T08:23:12Z</time>
      </trkpt>
      <trkpt lat="46.425057565793395" lon="8.425305839627981">
        <ele>2007.8499999999999</ele>
        <time>2013-09-22T08:23:44Z</time>
      </trkpt>
      <trkpt lat="46.425216235220432" lon="8.425304247066379">
        <ele>2009.29</ele>
        <time>2013-09-22T08:24:00Z</time>
      </trkpt>
      <trkpt lat="46.425357973203063" lon="8.425296619534493">
        <ele>2011.22</ele>
        <time>2013-09-22T08:24:17Z</time>
      </trkpt>
      <trkpt lat="46.425486467778683" lon="8.425263175740838">
        <ele>2012.6600000000001</ele>
        <time>2013-09-22T08:24:32Z</time>
      </trkpt>
      <trkpt lat="46.425604317337275" lon="8.425200898200274">
        <ele>2014.0999999999999</ele>
        <time>2013-09-22T08:24:48Z</time>
      </trkpt>
      <trkpt lat="46.425738092511892" lon="8.425155133008957">
        <ele>2015.54</ele>
        <time>2013-09-22T08:25:03Z</time>
      </trkpt>
      <trkpt lat="46.425869939848781" lon="8.425137866288424">
        <ele>2016.98</ele>
        <time>2013-09-22T08:25:18Z</time>
      </trkpt>
      <trkpt lat="46.425991728901863" lon="8.425113139674068">
        <ele>2017.9400000000001</ele>
        <time>2013-09-22T08:25:32Z</time>
      </trkpt>
      <trkpt lat="46.426022490486503" lon="8.425102159380913">
        <ele>2018.9100000000001</ele>
        <time>2013-09-22T08:25:35Z</time>
      </trkpt>
      <trkpt lat="46.426065489649773" lon="8.425089418888092">
        <ele>2019.3900000000001</ele>
        <time>2013-09-22T08:25:40Z</time>
      </trkpt>
      <trkpt lat="46.42619582824409" lon="8.425077265128493">
        <ele>2020.8299999999999</ele>
        <time>2013-09-22T08:25:55Z</time>
      </trkpt>
      <trkpt lat="46.426231283694506" lon="8.425061171874404">
        <ele>2021.3099999999999</ele>
        <time>2013-09-22T08:25:59Z</time>
      </trkpt>
      <trkpt lat="46.426359442993999" lon="8.425013814121485">
        <ele>2023.23</ele>
        <time>2013-09-22T08:26:13Z</time>
      </trkpt>
      <trkpt lat="46.426420966163278" lon="8.425004426389933">
        <ele>2023.71</ele>
        <time>2013-09-22T08:26:19Z</time>
      </trkpt>
      <trkpt lat="46.426572175696492" lon="8.425034852698445">
        <ele>2025.6400000000001</ele>
        <time>2013-09-22T08:26:35Z</time>
      </trkpt>
      <trkpt lat="46.426687929779291" lon="8.424976682290435">
        <ele>2027.0799999999999</ele>
        <time>2013-09-22T08:26:48Z</time>
      </trkpt>
      <trkpt lat="46.426707962527871" lon="8.424949105829001">
        <ele>2027.5599999999999</ele>
        <time>2013-09-22T08:26:51Z</time>
      </trkpt>
      <trkpt lat="46.426815586164594" lon="8.424829998984933">
        <ele>2029</ele>
        <time>2013-09-22T08:27:05Z</time>
      </trkpt>
      <trkpt lat="46.426908290013671" lon="8.424676023423672">
        <ele>2030.4400000000001</ele>
        <time>2013-09-22T08:27:19Z</time>
      </trkpt>
      <trkpt lat="46.426933435723186" lon="8.424600418657064">
        <ele>2031.4000000000001</ele>
        <time>2013-09-22T08:27:25Z</time>
      </trkpt>
      <trkpt lat="46.426961347460747" lon="8.424387685954571">
        <ele>2033.3299999999999</ele>
        <time>2013-09-22T08:27:40Z</time>
      </trkpt>
      <trkpt lat="46.426969477906823" lon="8.424242008477449">
        <ele>2033.8099999999999</ele>
        <time>2013-09-22T08:27:50Z</time>
      </trkpt>
      <trkpt lat="46.427045669406652" lon="8.42411988414824">
        <ele>2035.25</ele>
        <time>2013-09-22T08:28:01Z</time>
      </trkpt>
      <trkpt lat="46.427180701866746" lon="8.42403095215559">
        <ele>2036.6900000000001</ele>
        <time>2013-09-22T08:28:16Z</time>
      </trkpt>
      <trkpt lat="46.427190257236362" lon="8.424025001004338">
        <ele>2036.6900000000001</ele>
        <time>2013-09-22T08:28:17Z</time>
      </trkpt>
      <trkpt lat="46.427353285253048" lon="8.423946714028716">
        <ele>2038.6099999999999</ele>
        <time>2013-09-22T08:28:33Z</time>
      </trkpt>
      <trkpt lat="46.427458981052041" lon="8.423797683790326">
        <ele>2039.0899999999999</ele>
        <time>2013-09-22T08:28:47Z</time>
      </trkpt>
      <trkpt lat="46.427548751235008" lon="8.423661896958947">
        <ele>2040.05</ele>
        <time>2013-09-22T08:29:01Z</time>
      </trkpt>
      <trkpt lat="46.427672803401947" lon="8.423534156754613">
        <ele>2041.98</ele>
        <time>2013-09-22T08:29:17Z</time>
      </trkpt>
      <trkpt lat="46.427739858627319" lon="8.423398705199361">
        <ele>2042.9400000000001</ele>
        <time>2013-09-22T08:29:28Z</time>
      </trkpt>
      <trkpt lat="46.427725022658706" lon="8.423248250037432">
        <ele>2043.9000000000001</ele>
        <time>2013-09-22T08:29:39Z</time>
      </trkpt>
      <trkpt lat="46.42765486612916" lon="8.423068039119244">
        <ele>2045.8199999999999</ele>
        <time>2013-09-22T08:29:54Z</time>
      </trkpt>
      <trkpt lat="46.427627373486757" lon="8.422835022211075">
        <ele>2047.26</ele>
        <time>2013-09-22T08:30:10Z</time>
      </trkpt>
      <trkpt lat="46.427654447034001" lon="8.422650368884206">
        <ele>2048.71</ele>
        <time>2013-09-22T08:30:23Z</time>
      </trkpt>
      <trkpt lat="46.427698703482747" lon="8.422473091632128">
        <ele>2050.1500000000001</ele>
        <time>2013-09-22T08:30:36Z</time>
      </trkpt>
      <trkpt lat="46.4277149643749" lon="8.422400504350662">
        <ele>2050.1500000000001</ele>
        <time>2013-09-22T08:30:41Z</time>
      </trkpt>
      <trkpt lat="46.427756119519472" lon="8.422202859073877">
        <ele>2051.5900000000001</ele>
        <time>2013-09-22T08:30:57Z</time>
      </trkpt>
      <trkpt lat="46.427788641303778" lon="8.422207972034812">
        <ele>2051.5900000000001</ele>
        <time>2013-09-22T08:31:00Z</time>
      </trkpt>
      <trkpt lat="46.427816636860371" lon="8.422287348657847">
        <ele>2052.5500000000002</ele>
        <time>2013-09-22T08:31:06Z</time>
      </trkpt>
      <trkpt lat="46.427825437858701" lon="8.422368904575706">
        <ele>2053.5100000000002</ele>
        <time>2013-09-22T08:31:12Z</time>
      </trkpt>
      <trkpt lat="46.427809093147516" lon="8.422601921483874">
        <ele>2055.4400000000001</ele>
        <time>2013-09-22T08:31:29Z</time>
      </trkpt>
      <trkpt lat="46.427868185564876" lon="8.422805517911911">
        <ele>2057.3600000000001</ele>
        <time>2013-09-22T08:31:45Z</time>
      </trkpt>
      <trkpt lat="46.427862569689751" lon="8.422794286161661">
        <ele>2057.8400000000001</ele>
        <time>2013-09-22T08:32:00Z</time>
      </trkpt>
      <trkpt lat="46.427920740097761" lon="8.422926887869835">
        <ele>2058.3200000000002</ele>
        <time>2013-09-22T08:32:17Z</time>
      </trkpt>
      <trkpt lat="46.428013360127807" lon="8.423093017190695">
        <ele>2059.7600000000002</ele>
        <time>2013-09-22T08:32:32Z</time>
      </trkpt>
      <trkpt lat="46.428020987659693" lon="8.42310156673193">
        <ele>2060.2399999999998</ele>
        <time>2013-09-22T08:32:33Z</time>
      </trkpt>
      <trkpt lat="46.428032219409943" lon="8.423126712441444">
        <ele>2060.2399999999998</ele>
        <time>2013-09-22T08:32:35Z</time>
      </trkpt>
      <trkpt lat="46.428160294890404" lon="8.423257889226079">
        <ele>2061.6799999999998</ele>
        <time>2013-09-22T08:32:51Z</time>
      </trkpt>
      <trkpt lat="46.428286777809262" lon="8.423339193686843">
        <ele>2063.1300000000001</ele>
        <time>2013-09-22T08:33:05Z</time>
      </trkpt>
      <trkpt lat="46.428331788629293" lon="8.423354532569647">
        <ele>2063.6100000000001</ele>
        <time>2013-09-22T08:33:09Z</time>
      </trkpt>
      <trkpt lat="46.428419295698404" lon="8.423494342714548">
        <ele>2065.0500000000002</ele>
        <time>2013-09-22T08:33:22Z</time>
      </trkpt>
      <trkpt lat="46.428462713956833" lon="8.423664243891835">
        <ele>2066.4899999999998</ele>
        <time>2013-09-22T08:33:34Z</time>
      </trkpt>
      <trkpt lat="46.428476460278034" lon="8.423747476190329">
        <ele>2066.4899999999998</ele>
        <time>2013-09-22T08:33:39Z</time>
      </trkpt>
      <trkpt lat="46.428448045626283" lon="8.423842778429389">
        <ele>2067.4499999999998</ele>
        <time>2013-09-22T08:33:46Z</time>
      </trkpt>
      <trkpt lat="46.428412841632962" lon="8.423905894160271">
        <ele>2067.9299999999998</ele>
        <time>2013-09-22T08:33:51Z</time>
      </trkpt>
      <trkpt lat="46.428363136947155" lon="8.423942942172289">
        <ele>2068.4099999999999</ele>
        <time>2013-09-22T08:33:56Z</time>
      </trkpt>
      <trkpt lat="46.428330279886723" lon="8.424064395949245">
        <ele>2069.8600000000001</ele>
        <time>2013-09-22T08:34:06Z</time>
      </trkpt>
      <trkpt lat="46.428349474444985" lon="8.424152322113514">
        <ele>2070.3400000000001</ele>
        <time>2013-09-22T08:34:14Z</time>
      </trkpt>
      <trkpt lat="46.428479310125113" lon="8.424214851111174">
        <ele>2072.2600000000002</ele>
        <time>2013-09-22T08:34:30Z</time>
      </trkpt>
      <trkpt lat="46.428518621250987" lon="8.424195908010006">
        <ele>2072.7399999999998</ele>
        <time>2013-09-22T08:34:34Z</time>
      </trkpt>
      <trkpt lat="46.428646445274353" lon="8.424059366807342">
        <ele>2073.6999999999998</ele>
        <time>2013-09-22T08:34:49Z</time>
      </trkpt>
      <trkpt lat="46.428699921816587" lon="8.423874042928219">
        <ele>2075.6199999999999</ele>
        <time>2013-09-22T08:35:04Z</time>
      </trkpt>
      <trkpt lat="46.428734539076686" lon="8.423684360459447">
        <ele>2077.0700000000002</ele>
        <time>2013-09-22T08:35:18Z</time>
      </trkpt>
      <trkpt lat="46.428732611238956" lon="8.423557793721557">
        <ele>2078.0300000000002</ele>
        <time>2013-09-22T08:35:27Z</time>
      </trkpt>
      <trkpt lat="46.428709561005235" lon="8.423327878117561">
        <ele>2080.4299999999998</ele>
        <time>2013-09-22T08:35:45Z</time>
      </trkpt>
      <trkpt lat="46.428647870197892" lon="8.423162586987019">
        <ele>2081.3899999999999</ele>
        <time>2013-09-22T08:35:59Z</time>
      </trkpt>
      <trkpt lat="46.428598836064339" lon="8.423040965572">
        <ele>2082.3499999999999</ele>
        <time>2013-09-22T08:36:10Z</time>
      </trkpt>
      <trkpt lat="46.428541168570518" lon="8.422905933111906">
        <ele>2083.79</ele>
        <time>2013-09-22T08:36:26Z</time>
      </trkpt>
      <trkpt lat="46.428524656221271" lon="8.422772325575352">
        <ele>2084.2800000000002</ele>
        <time>2013-09-22T08:36:42Z</time>
      </trkpt>
      <trkpt lat="46.428525745868683" lon="8.42275514267385">
        <ele>2084.7600000000002</ele>
        <time>2013-09-22T08:36:46Z</time>
      </trkpt>
      <trkpt lat="46.428527506068349" lon="8.422724800184369">
        <ele>2085.2399999999998</ele>
        <time>2013-09-22T08:36:48Z</time>
      </trkpt>
      <trkpt lat="46.428539576008916" lon="8.422565124928951">
        <ele>2086.6799999999998</ele>
        <time>2013-09-22T08:37:03Z</time>
      </trkpt>
      <trkpt lat="46.428559441119432" lon="8.422374101355672">
        <ele>2088.1199999999999</ele>
        <time>2013-09-22T08:37:17Z</time>
      </trkpt>
      <trkpt lat="46.428579390048981" lon="8.422245187684894">
        <ele>2088.5999999999999</ele>
        <time>2013-09-22T08:37:26Z</time>
      </trkpt>
      <trkpt lat="46.428601099178195" lon="8.422010075300932">
        <ele>2090.04</ele>
        <time>2013-09-22T08:37:43Z</time>
      </trkpt>
      <trkpt lat="46.428750129416585" lon="8.421954587101936">
        <ele>2091.9699999999998</ele>
        <time>2013-09-22T08:38:00Z</time>
      </trkpt>
      <trkpt lat="46.428810143843293" lon="8.422011416405439">
        <ele>2093.4099999999999</ele>
        <time>2013-09-22T08:38:07Z</time>
      </trkpt>
      <trkpt lat="46.428755326196551" lon="8.422279637306929">
        <ele>2095.3299999999999</ele>
        <time>2013-09-22T08:38:27Z</time>
      </trkpt>
      <trkpt lat="46.428731270134449" lon="8.42251181602478">
        <ele>2097.25</ele>
        <time>2013-09-22T08:38:46Z</time>
      </trkpt>
      <trkpt lat="46.428822046145797" lon="8.422648021951318">
        <ele>2099.1799999999998</ele>
        <time>2013-09-22T08:39:04Z</time>
      </trkpt>
      <trkpt lat="46.428845934569836" lon="8.422572333365679">
        <ele>2099.6599999999999</ele>
        <time>2013-09-22T08:39:13Z</time>
      </trkpt>
      <trkpt lat="46.428891280665994" lon="8.422318110242486">
        <ele>2101.5799999999999</ele>
        <time>2013-09-22T08:39:32Z</time>
      </trkpt>
      <trkpt lat="46.428928077220917" lon="8.422102276235819">
        <ele>2102.54</ele>
        <time>2013-09-22T08:39:49Z</time>
      </trkpt>
      <trkpt lat="46.428949199616909" lon="8.421913012862206">
        <ele>2104.46</ele>
        <time>2013-09-22T08:40:01Z</time>
      </trkpt>
      <trkpt lat="46.428905865177512" lon="8.421718804165721">
        <ele>2105.9099999999999</ele>
        <time>2013-09-22T08:40:15Z</time>
      </trkpt>
      <trkpt lat="46.428918270394206" lon="8.421667842194438">
        <ele>2105.9099999999999</ele>
        <time>2013-09-22T08:40:19Z</time>
      </trkpt>
      <trkpt lat="46.428963532671332" lon="8.421658203005791">
        <ele>2106.3899999999999</ele>
        <time>2013-09-22T08:40:23Z</time>
      </trkpt>
      <trkpt lat="46.428997227922082" lon="8.421682845801115">
        <ele>2106.8699999999999</ele>
        <time>2013-09-22T08:40:26Z</time>
      </trkpt>
      <trkpt lat="46.429031426087022" lon="8.42178862541914">
        <ele>2107.3499999999999</ele>
        <time>2013-09-22T08:40:34Z</time>
      </trkpt>
      <trkpt lat="46.429044920951128" lon="8.421836486086249">
        <ele>2107.8299999999999</ele>
        <time>2013-09-22T08:40:37Z</time>
      </trkpt>
      <trkpt lat="46.429058751091361" lon="8.421905301511288">
        <ele>2107.8299999999999</ele>
        <time>2013-09-22T08:40:42Z</time>
      </trkpt>
      <trkpt lat="46.42905137501657" lon="8.422067994251847">
        <ele>2109.75</ele>
        <time>2013-09-22T08:40:54Z</time>
      </trkpt>
      <trkpt lat="46.429060595110059" lon="8.422131612896919">
        <ele>2110.23</ele>
        <time>2013-09-22T08:40:59Z</time>
      </trkpt>
      <trkpt lat="46.429070066660643" lon="8.422205457463861">
        <ele>2110.71</ele>
        <time>2013-09-22T08:41:05Z</time>
      </trkpt>
      <trkpt lat="46.429170062765479" lon="8.422388518229127">
        <ele>2112.1500000000001</ele>
        <time>2013-09-22T08:41:21Z</time>
      </trkpt>
      <trkpt lat="46.42917500808835" lon="8.422401426360011">
        <ele>2112.1500000000001</ele>
        <time>2013-09-22T08:41:22Z</time>
      </trkpt>
      <trkpt lat="46.429257821291685" lon="8.422554731369019">
        <ele>2113.5999999999999</ele>
        <time>2013-09-22T08:41:37Z</time>
      </trkpt>
      <trkpt lat="46.429299646988511" lon="8.422676185145974">
        <ele>2114.5599999999999</ele>
        <time>2013-09-22T08:41:47Z</time>
      </trkpt>
      <trkpt lat="46.42927416600287" lon="8.422876344993711">
        <ele>2116.48</ele>
        <time>2013-09-22T08:42:01Z</time>
      </trkpt>
      <trkpt lat="46.429266035556793" lon="8.422903250902891">
        <ele>2116</ele>
        <time>2013-09-22T08:42:03Z</time>
      </trkpt>
      <trkpt lat="46.429292941465974" lon="8.423131825402379">
        <ele>2117.9200000000001</ele>
        <time>2013-09-22T08:42:20Z</time>
      </trkpt>
      <trkpt lat="46.429287493228912" lon="8.423293344676495">
        <ele>2117.9200000000001</ele>
        <time>2013-09-22T08:42:31Z</time>
      </trkpt>
      <trkpt lat="46.429279446601868" lon="8.423337517306209">
        <ele>2119.3600000000001</ele>
        <time>2013-09-22T08:42:34Z</time>
      </trkpt>
      <trkpt lat="46.429246086627245" lon="8.423451762646437">
        <ele>2119.8400000000001</ele>
        <time>2013-09-22T08:42:45Z</time>
      </trkpt>
      <trkpt lat="46.429251534864306" lon="8.423508508130908">
        <ele>2120.8099999999999</ele>
        <time>2013-09-22T08:42:58Z</time>
      </trkpt>
      <trkpt lat="46.429280200973153" lon="8.423602301627398">
        <ele>2121.29</ele>
        <time>2013-09-22T08:43:05Z</time>
      </trkpt>
      <trkpt lat="46.42934943549335" lon="8.42378418892622">
        <ele>2122.25</ele>
        <time>2013-09-22T08:43:19Z</time>
      </trkpt>
      <trkpt lat="46.429393691942096" lon="8.423963813111186">
        <ele>2123.6900000000001</ele>
        <time>2013-09-22T08:43:32Z</time>
      </trkpt>
      <trkpt lat="46.429377179592848" lon="8.424049140885472">
        <ele>2124.1700000000001</ele>
        <time>2013-09-22T08:43:38Z</time>
      </trkpt>
      <trkpt lat="46.429379861801863" lon="8.424237817525864">
        <ele>2125.6100000000001</ele>
        <time>2013-09-22T08:43:51Z</time>
      </trkpt>
      <trkpt lat="46.429378185421228" lon="8.42425131238997">
        <ele>2125.6100000000001</ele>
        <time>2013-09-22T08:43:52Z</time>
      </trkpt>
      <trkpt lat="46.429366366937757" lon="8.424353655427694">
        <ele>2126.0900000000001</ele>
        <time>2013-09-22T08:43:58Z</time>
      </trkpt>
      <trkpt lat="46.429284727200866" lon="8.424547025933862">
        <ele>2127.5300000000002</ele>
        <time>2013-09-22T08:44:13Z</time>
      </trkpt>
      <trkpt lat="46.429252456873655" lon="8.424690775573254">
        <ele>2128.02</ele>
        <time>2013-09-22T08:44:23Z</time>
      </trkpt>
      <trkpt lat="46.42925220541656" lon="8.424809882417321">
        <ele>2128.98</ele>
        <time>2013-09-22T08:44:31Z</time>
      </trkpt>
      <trkpt lat="46.429272657260299" lon="8.424899904057384">
        <ele>2129.9400000000001</ele>
        <time>2013-09-22T08:44:37Z</time>
      </trkpt>
      <trkpt lat="46.429278776049614" lon="8.42493393458426">
        <ele>2130.9000000000001</ele>
        <time>2013-09-22T08:44:39Z</time>
      </trkpt>
      <trkpt lat="46.429295036941767" lon="8.424975089728832">
        <ele>2130.4200000000001</ele>
        <time>2013-09-22T08:44:42Z</time>
      </trkpt>
      <trkpt lat="46.429317584261298" lon="8.425026722252369">
        <ele>2131.3800000000001</ele>
        <time>2013-09-22T08:44:47Z</time>
      </trkpt>
      <trkpt lat="46.429344741627574" lon="8.425079695880413">
        <ele>2131.8600000000001</ele>
        <time>2013-09-22T08:44:51Z</time>
      </trkpt>
      <trkpt lat="46.429411126300693" lon="8.425208693370223">
        <ele>2132.3400000000001</ele>
        <time>2013-09-22T08:45:02Z</time>
      </trkpt>
      <trkpt lat="46.429488491266966" lon="8.425372475758195">
        <ele>2135.23</ele>
        <time>2013-09-22T08:45:15Z</time>
      </trkpt>
      <trkpt lat="46.429534005001187" lon="8.425478590652347">
        <ele>2134.2600000000002</ele>
        <time>2013-09-22T08:45:23Z</time>
      </trkpt>
      <trkpt lat="46.429574070498347" lon="8.42558235861361">
        <ele>2135.71</ele>
        <time>2013-09-22T08:45:31Z</time>
      </trkpt>
      <trkpt lat="46.429612627252936" lon="8.425650503486395">
        <ele>2135.23</ele>
        <time>2013-09-22T08:45:36Z</time>
      </trkpt>
      <trkpt lat="46.429710946977139" lon="8.425869941711426">
        <ele>2135.71</ele>
        <time>2013-09-22T08:45:51Z</time>
      </trkpt>
      <trkpt lat="46.429827120155096" lon="8.426062725484371">
        <ele>2136.1900000000001</ele>
        <time>2013-09-22T08:46:07Z</time>
      </trkpt>
      <trkpt lat="46.429968690499663" lon="8.426253916695714">
        <ele>2136.6700000000001</ele>
        <time>2013-09-22T08:46:24Z</time>
      </trkpt>
      <trkpt lat="46.429998949170113" lon="8.42631820589304">
        <ele>2136.6700000000001</ele>
        <time>2013-09-22T08:46:34Z</time>
      </trkpt>
      <trkpt lat="46.429972127079964" lon="8.426292892545462">
        <ele>2135.71</ele>
        <time>2013-09-22T08:46:43Z</time>
      </trkpt>
      <trkpt lat="46.429963577538729" lon="8.426296915858984">
        <ele>2136.6700000000001</ele>
        <time>2013-09-22T08:47:15Z</time>
      </trkpt>
      <trkpt lat="46.43001495860517" lon="8.426389619708061">
        <ele>2136.6700000000001</ele>
        <time>2013-09-22T08:47:26Z</time>
      </trkpt>
      <trkpt lat="46.430117385461926" lon="8.426633784547448">
        <ele>2137.6300000000001</ele>
        <time>2013-09-22T08:47:43Z</time>
      </trkpt>
      <trkpt lat="46.430170442909002" lon="8.426801422610879">
        <ele>2136.1900000000001</ele>
        <time>2013-09-22T08:47:54Z</time>
      </trkpt>
      <trkpt lat="46.430206149816513" lon="8.426891779527068">
        <ele>2138.1100000000001</ele>
        <time>2013-09-22T08:48:01Z</time>
      </trkpt>
      <trkpt lat="46.430253842845559" lon="8.426993535831571">
        <ele>2137.6300000000001</ele>
        <time>2013-09-22T08:48:09Z</time>
      </trkpt>
      <trkpt lat="46.430271277204156" lon="8.427033768966794">
        <ele>2137.6300000000001</ele>
        <time>2013-09-22T08:48:12Z</time>
      </trkpt>
      <trkpt lat="46.430295165628195" lon="8.427093699574471">
        <ele>2137.6300000000001</ele>
        <time>2013-09-22T08:48:16Z</time>
      </trkpt>
      <trkpt lat="46.430417038500309" lon="8.427293775603175">
        <ele>2138.1100000000001</ele>
        <time>2013-09-22T08:48:31Z</time>
      </trkpt>
      <trkpt lat="46.430525919422507" lon="8.42741422355175">
        <ele>2139.0700000000002</ele>
        <time>2013-09-22T08:48:43Z</time>
      </trkpt>
      <trkpt lat="46.430599093437195" lon="8.427498294040561">
        <ele>2140.0300000000002</ele>
        <time>2013-09-22T08:48:52Z</time>
      </trkpt>
      <trkpt lat="46.430653240531683" lon="8.427549842745066">
        <ele>2140.0300000000002</ele>
        <time>2013-09-22T08:48:57Z</time>
      </trkpt>
      <trkpt lat="46.430751057341695" lon="8.427665177732706">
        <ele>2142.4400000000001</ele>
        <time>2013-09-22T08:49:10Z</time>
      </trkpt>
      <trkpt lat="46.430833283811808" lon="8.42773717828095">
        <ele>2142.9200000000001</ele>
        <time>2013-09-22T08:49:21Z</time>
      </trkpt>
      <trkpt lat="46.430936045944691" lon="8.42779878526926">
        <ele>2143.8800000000001</ele>
        <time>2013-09-22T08:49:33Z</time>
      </trkpt>
      <trkpt lat="46.430996814742684" lon="8.427844047546387">
        <ele>2145.3200000000002</ele>
        <time>2013-09-22T08:49:40Z</time>
      </trkpt>
      <trkpt lat="46.431107791140676" lon="8.427897188812494">
        <ele>2145.8000000000002</ele>
        <time>2013-09-22T08:49:52Z</time>
      </trkpt>
      <trkpt lat="46.431140564382076" lon="8.427902637049556">
        <ele>2146.7600000000002</ele>
        <time>2013-09-22T08:49:56Z</time>
      </trkpt>
      <trkpt lat="46.4311548974365" lon="8.427912862971425">
        <ele>2146.2800000000002</ele>
        <time>2013-09-22T08:49:58Z</time>
      </trkpt>
      <trkpt lat="46.431244583800435" lon="8.427988551557064">
        <ele>2147.7199999999998</ele>
        <time>2013-09-22T08:50:10Z</time>
      </trkpt>
      <trkpt lat="46.431292109191418" lon="8.428064407780767">
        <ele>2148.1999999999998</ele>
        <time>2013-09-22T08:50:19Z</time>
      </trkpt>
      <trkpt lat="46.431357655674219" lon="8.428221233189106">
        <ele>2149.1599999999999</ele>
        <time>2013-09-22T08:50:32Z</time>
      </trkpt>
      <trkpt lat="46.431400151923299" lon="8.428320894017816">
        <ele>2149.6500000000001</ele>
        <time>2013-09-22T08:50:41Z</time>
      </trkpt>
      <trkpt lat="46.431452119722962" lon="8.428433127701283">
        <ele>2150.1300000000001</ele>
        <time>2013-09-22T08:50:51Z</time>
      </trkpt>
      <trkpt lat="46.431478941813111" lon="8.428476629778743">
        <ele>2150.1300000000001</ele>
        <time>2013-09-22T08:50:55Z</time>
      </trkpt>
      <trkpt lat="46.431481624022126" lon="8.428511917591095">
        <ele>2149.1599999999999</ele>
        <time>2013-09-22T08:50:58Z</time>
      </trkpt>
      <trkpt lat="46.431572316214442" lon="8.428629264235497">
        <ele>2151.5700000000002</ele>
        <time>2013-09-22T08:51:12Z</time>
      </trkpt>
      <trkpt lat="46.431629313156009" lon="8.428747449070215">
        <ele>2152.0500000000002</ele>
        <time>2013-09-22T08:51:23Z</time>
      </trkpt>
      <trkpt lat="46.431681029498577" lon="8.428877200931311">
        <ele>2153.0100000000002</ele>
        <time>2013-09-22T08:51:34Z</time>
      </trkpt>
      <trkpt lat="46.431721262633801" lon="8.429083228111267">
        <ele>2153.4899999999998</ele>
        <time>2013-09-22T08:51:49Z</time>
      </trkpt>
      <trkpt lat="46.431778762489557" lon="8.429298223927617">
        <ele>2153.9699999999998</ele>
        <time>2013-09-22T08:52:04Z</time>
      </trkpt>
      <trkpt lat="46.43185269087553" lon="8.429479859769344">
        <ele>2153.9699999999998</ele>
        <time>2013-09-22T08:52:19Z</time>
      </trkpt>
      <trkpt lat="46.431945730000734" lon="8.429624112322927">
        <ele>2153.9699999999998</ele>
        <time>2013-09-22T08:52:32Z</time>
      </trkpt>
      <trkpt lat="46.432061232626438" lon="8.429761240258813">
        <ele>2154.4499999999998</ele>
        <time>2013-09-22T08:52:46Z</time>
      </trkpt>
      <trkpt lat="46.432128958404064" lon="8.429848244413734">
        <ele>2154.4499999999998</ele>
        <time>2013-09-22T08:52:54Z</time>
      </trkpt>
      <trkpt lat="46.432214202359319" lon="8.429975733160973">
        <ele>2154.9299999999998</ele>
        <time>2013-09-22T08:53:05Z</time>
      </trkpt>
      <trkpt lat="46.432298440486193" lon="8.430148316547275">
        <ele>2155.4099999999999</ele>
        <time>2013-09-22T08:53:20Z</time>
      </trkpt>
      <trkpt lat="46.432352587580681" lon="8.430336825549603">
        <ele>2155.4099999999999</ele>
        <time>2013-09-22T08:53:35Z</time>
      </trkpt>
      <trkpt lat="46.432430287823081" lon="8.430495243519545">
        <ele>2156.3699999999999</ele>
        <time>2013-09-22T08:53:49Z</time>
      </trkpt>
      <trkpt lat="46.432565404102206" lon="8.430626755580306">
        <ele>2157.3400000000001</ele>
        <time>2013-09-22T08:54:06Z</time>
      </trkpt>
      <trkpt lat="46.43270680680871" lon="8.430663719773293">
        <ele>2156.8600000000001</ele>
        <time>2013-09-22T08:54:22Z</time>
      </trkpt>
      <trkpt lat="46.432792553678155" lon="8.430604208260775">
        <ele>2157.3400000000001</ele>
        <time>2013-09-22T08:54:31Z</time>
      </trkpt>
      <trkpt lat="46.432926412671804" lon="8.430499183014035">
        <ele>2157.3400000000001</ele>
        <time>2013-09-22T08:54:47Z</time>
      </trkpt>
      <trkpt lat="46.433096397668123" lon="8.430440509691834">
        <ele>2156.8600000000001</ele>
        <time>2013-09-22T08:55:04Z</time>
      </trkpt>
      <trkpt lat="46.433261521160603" lon="8.430399522185326">
        <ele>2157.3400000000001</ele>
        <time>2013-09-22T08:55:18Z</time>
      </trkpt>
      <trkpt lat="46.433334276080132" lon="8.43039290048182">
        <ele>2157.3400000000001</ele>
        <time>2013-09-22T08:55:24Z</time>
      </trkpt>
      <trkpt lat="46.433507781475782" lon="8.430378902703524">
        <ele>2157.3400000000001</ele>
        <time>2013-09-22T08:55:40Z</time>
      </trkpt>
      <trkpt lat="46.433569137006998" lon="8.430374292656779">
        <ele>2157.3400000000001</ele>
        <time>2013-09-22T08:55:45Z</time>
      </trkpt>
      <trkpt lat="46.43368111923337" lon="8.430393151938915">
        <ele>2157.8200000000002</ele>
        <time>2013-09-22T08:55:55Z</time>
      </trkpt>
      <trkpt lat="46.433896785601974" lon="8.430453920736909">
        <ele>2157.8200000000002</ele>
        <time>2013-09-22T08:56:11Z</time>
      </trkpt>
      <trkpt lat="46.434040367603302" lon="8.430503038689494">
        <ele>2158.3000000000002</ele>
        <time>2013-09-22T08:56:25Z</time>
      </trkpt>
      <trkpt lat="46.434201383963227" lon="8.430501529946923">
        <ele>2158.3000000000002</ele>
        <time>2013-09-22T08:56:38Z</time>
      </trkpt>
      <trkpt lat="46.434213118627667" lon="8.430499602109194">
        <ele>2158.3000000000002</ele>
        <time>2013-09-22T08:56:39Z</time>
      </trkpt>
      <trkpt lat="46.434250837191939" lon="8.430514438077807">
        <ele>2158.7800000000002</ele>
        <time>2013-09-22T08:56:43Z</time>
      </trkpt>
      <trkpt lat="46.434392323717475" lon="8.430474707856774">
        <ele>2158.7800000000002</ele>
        <time>2013-09-22T08:56:58Z</time>
      </trkpt>
      <trkpt lat="46.434500869363546" lon="8.430318385362625">
        <ele>2158.3000000000002</ele>
        <time>2013-09-22T08:57:11Z</time>
      </trkpt>
      <trkpt lat="46.434574713930488" lon="8.430224172770977">
        <ele>2158.3000000000002</ele>
        <time>2013-09-22T08:57:20Z</time>
      </trkpt>
      <trkpt lat="46.434613857418299" lon="8.430166505277157">
        <ele>2158.3000000000002</ele>
        <time>2013-09-22T08:57:27Z</time>
      </trkpt>
      <trkpt lat="46.434786692261696" lon="8.430089643225074">
        <ele>2158.7800000000002</ele>
        <time>2013-09-22T08:57:43Z</time>
      </trkpt>
      <trkpt lat="46.434852574020624" lon="8.429992496967316">
        <ele>2159.2600000000002</ele>
        <time>2013-09-22T08:57:51Z</time>
      </trkpt>
      <trkpt lat="46.434881072491407" lon="8.42976450920105">
        <ele>2158.7800000000002</ele>
        <time>2013-09-22T08:58:05Z</time>
      </trkpt>
      <trkpt lat="46.434895657002926" lon="8.429701561108232">
        <ele>2159.2600000000002</ele>
        <time>2013-09-22T08:58:09Z</time>
      </trkpt>
      <trkpt lat="46.434942428022623" lon="8.429600056260824">
        <ele>2159.2600000000002</ele>
        <time>2013-09-22T08:58:25Z</time>
      </trkpt>
      <trkpt lat="46.434939075261354" lon="8.429600307717919">
        <ele>2159.2600000000002</ele>
        <time>2013-09-22T08:58:29Z</time>
      </trkpt>
      <trkpt lat="46.43481083214283" lon="8.429416576400399">
        <ele>2159.7399999999998</ele>
        <time>2013-09-22T08:58:44Z</time>
      </trkpt>
      <trkpt lat="46.434754757210612" lon="8.429276933893561">
        <ele>2160.2199999999998</ele>
        <time>2013-09-22T08:58:54Z</time>
      </trkpt>
      <trkpt lat="46.434611510485411" lon="8.428963618353009">
        <ele>2161.6599999999999</ele>
        <time>2013-09-22T08:59:15Z</time>
      </trkpt>
      <trkpt lat="46.434549065306783" lon="8.428695145994425">
        <ele>2161.6599999999999</ele>
        <time>2013-09-22T08:59:31Z</time>
      </trkpt>
      <trkpt lat="46.434555351734161" lon="8.428514264523983">
        <ele>2162.1399999999999</ele>
        <time>2013-09-22T08:59:42Z</time>
      </trkpt>
      <trkpt lat="46.434607738628983" lon="8.428385183215141">
        <ele>2162.6199999999999</ele>
        <time>2013-09-22T08:59:52Z</time>
      </trkpt>
      <trkpt lat="46.434737239032984" lon="8.428293569013476">
        <ele>2163.5799999999999</ele>
        <time>2013-09-22T09:00:06Z</time>
      </trkpt>
      <trkpt lat="46.434771185740829" lon="8.428288456052542">
        <ele>2165.0300000000002</ele>
        <time>2013-09-22T09:00:16Z</time>
      </trkpt>
      <trkpt lat="46.434763809666038" lon="8.42829080298543">
        <ele>2165.0300000000002</ele>
        <time>2013-09-22T09:00:24Z</time>
      </trkpt>
      <trkpt lat="46.434746207669377" lon="8.428179575130343">
        <ele>2164.0599999999999</ele>
        <time>2013-09-22T09:00:29Z</time>
      </trkpt>
      <trkpt lat="46.434706561267376" lon="8.428038088604808">
        <ele>2165.9899999999998</ele>
        <time>2013-09-22T09:00:41Z</time>
      </trkpt>
      <trkpt lat="46.434701448306441" lon="8.428032388910651">
        <ele>2165.9899999999998</ele>
        <time>2013-09-22T09:00:42Z</time>
      </trkpt>
      <trkpt lat="46.434701029211283" lon="8.427598457783461">
        <ele>2166.4699999999998</ele>
        <time>2013-09-22T09:01:16Z</time>
      </trkpt>
      <trkpt lat="46.434730617329478" lon="8.427995089441538">
        <ele>2166.4699999999998</ele>
        <time>2013-09-22T09:05:15Z</time>
      </trkpt>
      <trkpt lat="46.434718379750848" lon="8.428099527955055">
        <ele>2166.9499999999998</ele>
        <time>2013-09-22T09:05:27Z</time>
      </trkpt>
      <trkpt lat="46.434700191020966" lon="8.428103635087609">
        <ele>2166.9499999999998</ele>
        <time>2013-09-22T09:05:39Z</time>
      </trkpt>
      <trkpt lat="46.434698766097426" lon="8.428112016990781">
        <ele>2166.9499999999998</ele>
        <time>2013-09-22T09:05:58Z</time>
      </trkpt>
      <trkpt lat="46.434714607894421" lon="8.428111094981432">
        <ele>2165.9899999999998</ele>
        <time>2013-09-22T09:06:20Z</time>
      </trkpt>
      <trkpt lat="46.434713853523135" lon="8.42811687849462">
        <ele>2165.5100000000002</ele>
        <time>2013-09-22T09:06:27Z</time>
      </trkpt>
      <trkpt lat="46.434692982584238" lon="8.428105479106307">
        <ele>2166.4699999999998</ele>
        <time>2013-09-22T09:06:45Z</time>
      </trkpt>
      <trkpt lat="46.434691473841667" lon="8.428128948435187">
        <ele>2165.5100000000002</ele>
        <time>2013-09-22T09:07:04Z</time>
      </trkpt>
      <trkpt lat="46.434706142172217" lon="8.428125595673919">
        <ele>2166.9499999999998</ele>
        <time>2013-09-22T09:07:21Z</time>
      </trkpt>
      <trkpt lat="46.434742603451014" lon="8.428108328953385">
        <ele>2166.9499999999998</ele>
        <time>2013-09-22T09:07:33Z</time>
      </trkpt>
      <trkpt lat="46.434906385838985" lon="8.427897272631526">
        <ele>2166.9499999999998</ele>
        <time>2013-09-22T09:07:51Z</time>
      </trkpt>
      <trkpt lat="46.434897249564528" lon="8.427875563502312">
        <ele>2167.4299999999998</ele>
        <time>2013-09-22T09:08:04Z</time>
      </trkpt>
      <trkpt lat="46.434931950643659" lon="8.427900960668922">
        <ele>2167.9099999999999</ele>
        <time>2013-09-22T09:08:16Z</time>
      </trkpt>
      <trkpt lat="46.434933710843325" lon="8.427923591807485">
        <ele>2167.4299999999998</ele>
        <time>2013-09-22T09:08:19Z</time>
      </trkpt>
      <trkpt lat="46.434862464666367" lon="8.427964495494962">
        <ele>2167.4299999999998</ele>
        <time>2013-09-22T09:08:24Z</time>
      </trkpt>
      <trkpt lat="46.43478493206203" lon="8.428020235151053">
        <ele>2167.9099999999999</ele>
        <time>2013-09-22T09:08:31Z</time>
      </trkpt>
      <trkpt lat="46.434740424156189" lon="8.428074549883604">
        <ele>2167.4299999999998</ele>
        <time>2013-09-22T09:08:36Z</time>
      </trkpt>
      <trkpt lat="46.434573456645012" lon="8.428165661171079">
        <ele>2165.5100000000002</ele>
        <time>2013-09-22T09:08:48Z</time>
      </trkpt>
      <trkpt lat="46.434517549350858" lon="8.428202960640192">
        <ele>2165.0300000000002</ele>
        <time>2013-09-22T09:08:53Z</time>
      </trkpt>
      <trkpt lat="46.434528697282076" lon="8.428249144926667">
        <ele>2165.0300000000002</ele>
        <time>2013-09-22T09:09:06Z</time>
      </trkpt>
      <trkpt lat="46.434579659253359" lon="8.428282672539353">
        <ele>2164.5500000000002</ele>
        <time>2013-09-22T09:09:14Z</time>
      </trkpt>
      <trkpt lat="46.434660796076059" lon="8.428301196545363">
        <ele>2164.5500000000002</ele>
        <time>2013-09-22T09:09:28Z</time>
      </trkpt>
      <trkpt lat="46.43465987406671" lon="8.428302202373743">
        <ele>2164.5500000000002</ele>
        <time>2013-09-22T09:09:48Z</time>
      </trkpt>
      <trkpt lat="46.434668423607945" lon="8.428329192101955">
        <ele>2164.0599999999999</ele>
        <time>2013-09-22T09:10:13Z</time>
      </trkpt>
      <trkpt lat="46.434675045311451" lon="8.428318547084928">
        <ele>2164.5500000000002</ele>
        <time>2013-09-22T09:10:38Z</time>
      </trkpt>
      <trkpt lat="46.434662975370884" lon="8.428299939259887">
        <ele>2164.5500000000002</ele>
        <time>2013-09-22T09:11:04Z</time>
      </trkpt>
      <trkpt lat="46.434662137180567" lon="8.428308656439185">
        <ele>2164.0599999999999</ele>
        <time>2013-09-22T09:11:23Z</time>
      </trkpt>
      <trkpt lat="46.43464470282197" lon="8.428298346698284">
        <ele>2164.5500000000002</ele>
        <time>2013-09-22T09:11:47Z</time>
      </trkpt>
      <trkpt lat="46.434661382809281" lon="8.428320055827498">
        <ele>2164.5500000000002</ele>
        <time>2013-09-22T09:12:06Z</time>
      </trkpt>
      <trkpt lat="46.434659538790584" lon="8.428322235122323">
        <ele>2164.0599999999999</ele>
        <time>2013-09-22T09:12:29Z</time>
      </trkpt>
      <trkpt lat="46.434659790247679" lon="8.428344028070569">
        <ele>2164.0599999999999</ele>
        <time>2013-09-22T09:12:58Z</time>
      </trkpt>
      <trkpt lat="46.434660628437996" lon="8.428320223465562">
        <ele>2164.0599999999999</ele>
        <time>2013-09-22T09:13:18Z</time>
      </trkpt>
      <trkpt lat="46.434644367545843" lon="8.428325168788433">
        <ele>2164.5500000000002</ele>
        <time>2013-09-22T09:13:32Z</time>
      </trkpt>
      <trkpt lat="46.434671524912119" lon="8.428300945088267">
        <ele>2164.5500000000002</ele>
        <time>2013-09-22T09:13:55Z</time>
      </trkpt>
      <trkpt lat="46.434663813561201" lon="8.428295329213142">
        <ele>2164.0599999999999</ele>
        <time>2013-09-22T09:14:13Z</time>
      </trkpt>
      <trkpt lat="46.434659203514457" lon="8.428315026685596">
        <ele>2164.5500000000002</ele>
        <time>2013-09-22T09:14:35Z</time>
      </trkpt>
      <trkpt lat="46.434650737792253" lon="8.4283113386482">
        <ele>2165.0300000000002</ele>
        <time>2013-09-22T09:15:04Z</time>
      </trkpt>
      <trkpt lat="46.43465400673449" lon="8.428296502679586">
        <ele>2165.0300000000002</ele>
        <time>2013-09-22T09:15:18Z</time>
      </trkpt>
      <trkpt lat="46.434646211564541" lon="8.42829080298543">
        <ele>2165.0300000000002</ele>
        <time>2013-09-22T09:15:33Z</time>
      </trkpt>
      <trkpt lat="46.434649229049683" lon="8.428303711116314">
        <ele>2164.5500000000002</ele>
        <time>2013-09-22T09:15:48Z</time>
      </trkpt>
      <trkpt lat="46.434637494385242" lon="8.428300023078919">
        <ele>2165.0300000000002</ele>
        <time>2013-09-22T09:16:08Z</time>
      </trkpt>
      <trkpt lat="46.434605726972222" lon="8.428313015028834">
        <ele>2164.5500000000002</ele>
        <time>2013-09-22T09:16:11Z</time>
      </trkpt>
      <trkpt lat="46.434635231271386" lon="8.428519712761045">
        <ele>2165.9899999999998</ele>
        <time>2013-09-22T09:16:27Z</time>
      </trkpt>
      <trkpt lat="46.434583012014627" lon="8.428454585373402">
        <ele>2165.0300000000002</ele>
        <time>2013-09-22T09:16:34Z</time>
      </trkpt>
      <trkpt lat="46.434578821063042" lon="8.428433546796441">
        <ele>2164.5500000000002</ele>
        <time>2013-09-22T09:16:35Z</time>
      </trkpt>
      <trkpt lat="46.434611594304442" lon="8.428314104676247">
        <ele>2165.0300000000002</ele>
        <time>2013-09-22T09:16:49Z</time>
      </trkpt>
      <trkpt lat="46.434609163552523" lon="8.428306225687265">
        <ele>2165.0300000000002</ele>
        <time>2013-09-22T09:17:07Z</time>
      </trkpt>
      <trkpt lat="46.434629196301103" lon="8.428283343091607">
        <ele>2165.0300000000002</ele>
        <time>2013-09-22T09:17:21Z</time>
      </trkpt>
      <trkpt lat="46.434589130803943" lon="8.428258113563061">
        <ele>2164.5500000000002</ele>
        <time>2013-09-22T09:17:44Z</time>
      </trkpt>
      <trkpt lat="46.434558872133493" lon="8.428248977288604">
        <ele>2164.5500000000002</ele>
        <time>2013-09-22T09:17:47Z</time>
      </trkpt>
      <trkpt lat="46.434509586542845" lon="8.428205223754048">
        <ele>2165.0300000000002</ele>
        <time>2013-09-22T09:17:53Z</time>
      </trkpt>
      <trkpt lat="46.434503300115466" lon="8.428194243460894">
        <ele>2165.0300000000002</ele>
        <time>2013-09-22T09:17:54Z</time>
      </trkpt>
      <trkpt lat="46.434498019516468" lon="8.428181670606136">
        <ele>2165.5100000000002</ele>
        <time>2013-09-22T09:17:55Z</time>
      </trkpt>
      <trkpt lat="46.434477651491761" lon="8.428191477432847">
        <ele>2165.0300000000002</ele>
        <time>2013-09-22T09:18:00Z</time>
      </trkpt>
      <trkpt lat="46.434458708390594" lon="8.428210001438856">
        <ele>2166.4699999999998</ele>
        <time>2013-09-22T09:18:03Z</time>
      </trkpt>
      <trkpt lat="46.434440268203616" lon="8.428205559030175">
        <ele>2166.4699999999998</ele>
        <time>2013-09-22T09:18:05Z</time>
      </trkpt>
      <trkpt lat="46.434377236291766" lon="8.428230788558722">
        <ele>2169.8299999999999</ele>
        <time>2013-09-22T09:18:15Z</time>
      </trkpt>
      <trkpt lat="46.434337422251701" lon="8.428258448839188">
        <ele>2172.7199999999998</ele>
        <time>2013-09-22T09:18:27Z</time>
      </trkpt>
      <trkpt lat="46.434273635968566" lon="8.42823950573802">
        <ele>2171.7600000000002</ele>
        <time>2013-09-22T09:18:47Z</time>
      </trkpt>
      <trkpt lat="46.434271791949868" lon="8.428205642849207">
        <ele>2173.6799999999998</ele>
        <time>2013-09-22T09:19:00Z</time>
      </trkpt>
      <trkpt lat="46.434281766414642" lon="8.428229279816151">
        <ele>2173.6799999999998</ele>
        <time>2013-09-22T09:19:27Z</time>
      </trkpt>
      <trkpt lat="46.434376901015639" lon="8.42831033281982">
        <ele>2172.7199999999998</ele>
        <time>2013-09-22T09:19:41Z</time>
      </trkpt>
      <trkpt lat="46.43446734175086" lon="8.428359283134341">
        <ele>2172.2399999999998</ele>
        <time>2013-09-22T09:19:56Z</time>
      </trkpt>
      <trkpt lat="46.434459630399942" lon="8.428359618410468">
        <ele>2171.27</ele>
        <time>2013-09-22T09:20:03Z</time>
      </trkpt>
      <trkpt lat="46.43444437533617" lon="8.428333718329668">
        <ele>2170.79</ele>
        <time>2013-09-22T09:20:05Z</time>
      </trkpt>
      <trkpt lat="46.434425516054034" lon="8.428280493244529">
        <ele>2169.3499999999999</ele>
        <time>2013-09-22T09:20:09Z</time>
      </trkpt>
      <trkpt lat="46.434431970119476" lon="8.428248474374414">
        <ele>2168.3899999999999</ele>
        <time>2013-09-22T09:20:12Z</time>
      </trkpt>
      <trkpt lat="46.434566751122475" lon="8.428220981732011">
        <ele>2165.0300000000002</ele>
        <time>2013-09-22T09:20:21Z</time>
      </trkpt>
      <trkpt lat="46.434647217392921" lon="8.428240763023496">
        <ele>2164.5500000000002</ele>
        <time>2013-09-22T09:20:30Z</time>
      </trkpt>
    </trkseg>
  </trk>

</gpx>